<?xml version='1.0' encoding='UTF-8'?><gpx version="1.1" creator="JPX - https://github.com/jenetics/jpx" xmlns="http://www.topografix.com/GPX/1/1"><trk><trkseg><trkpt lat="45.152681616782836" lon="4.055895373132488"><ele>918.0</ele><time>2026-03-31T09:51:55.998Z</time></trkpt><trkpt lat="45.15273052211402" lon="4.055956477915825"><ele>918.0</ele><time>2026-03-31T09:51:57.998Z</time></trkpt><trkpt lat="45.152795871263024" lon="4.056084973200598"><ele>918.0</ele><time>2026-03-31T09:51:59.998Z</time></trkpt><trkpt lat="45.15285723993475" lon="4.056206849262251"><ele>918.0</ele><time>2026-03-31T09:52:01.998Z</time></trkpt><trkpt lat="45.15291763184843" lon="4.0563211553041825"><ele>918.0</ele><time>2026-03-31T09:52:03.998Z</time></trkpt><trkpt lat="45.1529607842739" lon="4.056478324564148"><ele>918.0</ele><time>2026-03-31T09:52:05.998Z</time></trkpt><trkpt lat="45.15301491048922" lon="4.056608384305061"><ele>918.0</ele><time>2026-03-31T09:52:07.998Z</time></trkpt><trkpt lat="45.15305142192642" lon="4.05671944887461"><ele>918.0</ele><time>2026-03-31T09:52:10.998Z</time></trkpt><trkpt lat="45.15308661920851" lon="4.056866676571354"><ele>918.0</ele><time>2026-03-31T09:52:12.998Z</time></trkpt><trkpt lat="45.15315447931903" lon="4.056972746905465"><ele>918.0</ele><time>2026-03-31T09:52:15Z</time></trkpt><trkpt lat="45.15322095684148" lon="4.057036724211663"><ele>916.2</ele><time>2026-03-31T09:52:17Z</time></trkpt><trkpt lat="45.1532598945866" lon="4.057125363918987"><ele>914.4</ele><time>2026-03-31T09:52:19Z</time></trkpt><trkpt lat="45.15327841851282" lon="4.057273496583617"><ele>912.6000000000001</ele><time>2026-03-31T09:52:21Z</time></trkpt><trkpt lat="45.153295328854455" lon="4.057396332081645"><ele>910.8000000000001</ele><time>2026-03-31T09:52:22Z</time></trkpt><trkpt lat="45.153324055098416" lon="4.057540154834067"><ele>909.0</ele><time>2026-03-31T09:52:23Z</time></trkpt><trkpt lat="45.15335299228373" lon="4.0576911198710715"><ele>909.0</ele><time>2026-03-31T09:52:24Z</time></trkpt><trkpt lat="45.153367660547" lon="4.057808798004481"><ele>909.0</ele><time>2026-03-31T09:52:25Z</time></trkpt><trkpt lat="45.1534039697343" lon="4.0579336468830824"><ele>909.0</ele><time>2026-03-31T09:52:26Z</time></trkpt><trkpt lat="45.15342910944212" lon="4.058054063954953"><ele>909.0</ele><time>2026-03-31T09:52:27Z</time></trkpt><trkpt lat="45.15344431991671" lon="4.058147514838139"><ele>909.0</ele><time>2026-03-31T09:52:28Z</time></trkpt><trkpt lat="45.15348107732645" lon="4.058295774002025"><ele>909.0</ele><time>2026-03-31T09:52:30Z</time></trkpt><trkpt lat="45.15350008068344" lon="4.058436114325125"><ele>909.4000000000001</ele><time>2026-03-31T09:52:32Z</time></trkpt><trkpt lat="45.153505983504715" lon="4.058585873593777"><ele>909.8000000000001</ele><time>2026-03-31T09:52:34Z</time></trkpt><trkpt lat="45.153502567157865" lon="4.058766213306906"><ele>910.1999999999999</ele><time>2026-03-31T09:52:36Z</time></trkpt><trkpt lat="45.15349959011093" lon="4.05892336330332"><ele>910.5999999999999</ele><time>2026-03-31T09:52:38Z</time></trkpt><trkpt lat="45.153491341626186" lon="4.059040091630136"><ele>911.0</ele><time>2026-03-31T09:52:40Z</time></trkpt><trkpt lat="45.15348484732472" lon="4.059139867546279"><ele>911.75</ele><time>2026-03-31T09:52:42Z</time></trkpt><trkpt lat="45.153490357183614" lon="4.059269792756149"><ele>912.5</ele><time>2026-03-31T09:52:45Z</time></trkpt><trkpt lat="45.15350269375511" lon="4.059361072417809"><ele>913.25</ele><time>2026-03-31T09:52:47Z</time></trkpt><trkpt lat="45.15351517697552" lon="4.0594532976967805"><ele>914.0</ele><time>2026-03-31T09:52:49Z</time></trkpt><trkpt lat="45.1534906756448" lon="4.059936950991872"><ele>913.8000000000001</ele><time>2026-03-31T09:52:51Z</time></trkpt><trkpt lat="45.15349766048265" lon="4.060026850735836"><ele>913.6000000000001</ele><time>2026-03-31T09:52:52Z</time></trkpt><trkpt lat="45.15348282243332" lon="4.060192145050171"><ele>913.4</ele><time>2026-03-31T09:52:54Z</time></trkpt><trkpt lat="45.15346729597003" lon="4.060337460635425"><ele>913.2</ele><time>2026-03-31T09:52:56Z</time></trkpt><trkpt lat="45.15346242776078" lon="4.060476072053298"><ele>913.0</ele><time>2026-03-31T09:52:58Z</time></trkpt><trkpt lat="45.15346281839289" lon="4.060636269324859"><ele>912.8</ele><time>2026-03-31T09:52:59.999Z</time></trkpt><trkpt lat="45.153453876922" lon="4.060805704815292"><ele>912.5999999999999</ele><time>2026-03-31T09:53:01.999Z</time></trkpt><trkpt lat="45.1534281921772" lon="4.060972439310339"><ele>912.4000000000001</ele><time>2026-03-31T09:53:03.999Z</time></trkpt><trkpt lat="45.153400991263354" lon="4.061135964190638"><ele>912.2</ele><time>2026-03-31T09:53:05.999Z</time></trkpt><trkpt lat="45.15338248565321" lon="4.061228877291314"><ele>912.0</ele><time>2026-03-31T09:53:06.999Z</time></trkpt><trkpt lat="45.15336448188349" lon="4.061333079491635"><ele>912.0</ele><time>2026-03-31T09:53:07.999Z</time></trkpt><trkpt lat="45.15335119351327" lon="4.061439800613439"><ele>912.0</ele><time>2026-03-31T09:53:08.999Z</time></trkpt><trkpt lat="45.153317002733864" lon="4.061574184508667"><ele>912.0</ele><time>2026-03-31T09:53:09.999Z</time></trkpt><trkpt lat="45.15329466758062" lon="4.061698322647906"><ele>912.0</ele><time>2026-03-31T09:53:10.999Z</time></trkpt><trkpt lat="45.15327714004459" lon="4.061802028207205"><ele>912.0</ele><time>2026-03-31T09:53:11.999Z</time></trkpt><trkpt lat="45.15326115438359" lon="4.061892687705867"><ele>912.0</ele><time>2026-03-31T09:53:12.999Z</time></trkpt><trkpt lat="45.15324339176343" lon="4.061995268193439"><ele>911.8</ele><time>2026-03-31T09:53:13.999Z</time></trkpt><trkpt lat="45.15322681992137" lon="4.06211825008015"><ele>911.6</ele><time>2026-03-31T09:53:14.999Z</time></trkpt><trkpt lat="45.15321140602782" lon="4.0622090708656025"><ele>911.3999999999999</ele><time>2026-03-31T09:53:15.999Z</time></trkpt><trkpt lat="45.15315029056861" lon="4.0623190726693545"><ele>911.1999999999999</ele><time>2026-03-31T09:53:17.999Z</time></trkpt><trkpt lat="45.15308478366126" lon="4.0624898554878985"><ele>911.0</ele><time>2026-03-31T09:53:20.999Z</time></trkpt><trkpt lat="45.15304882935047" lon="4.062588132088773"><ele>911.3333333333334</ele><time>2026-03-31T09:53:21.999Z</time></trkpt><trkpt lat="45.153015106339666" lon="4.062679941668547"><ele>911.6666666666667</ele><time>2026-03-31T09:53:22.999Z</time></trkpt><trkpt lat="45.152970383535006" lon="4.062836134732142"><ele>912.0</ele><time>2026-03-31T09:53:24.999Z</time></trkpt><trkpt lat="45.1529399327652" lon="4.062929433390973"><ele>912.3333333333333</ele><time>2026-03-31T09:53:25.999Z</time></trkpt><trkpt lat="45.15292532651807" lon="4.0630163464518985"><ele>912.6666666666666</ele><time>2026-03-31T09:53:26.999Z</time></trkpt><trkpt lat="45.15290030967834" lon="4.063128346728933"><ele>913.0</ele><time>2026-03-31T09:53:27.999Z</time></trkpt><trkpt lat="45.15288860349355" lon="4.0632364886048435"><ele>912.4</ele><time>2026-03-31T09:53:28.999Z</time></trkpt><trkpt lat="45.15288445000697" lon="4.0633578049351495"><ele>911.8</ele><time>2026-03-31T09:53:29.999Z</time></trkpt><trkpt lat="45.152883734757935" lon="4.063483669173905"><ele>911.2</ele><time>2026-03-31T09:53:30.999Z</time></trkpt><trkpt lat="45.15289397125279" lon="4.063676073227455"><ele>910.6</ele><time>2026-03-31T09:53:32.999Z</time></trkpt><trkpt lat="45.15290276885267" lon="4.063766711620478"><ele>910.0</ele><time>2026-03-31T09:53:33.999Z</time></trkpt><trkpt lat="45.15293889555262" lon="4.063934728984589"><ele>910.0</ele><time>2026-03-31T09:53:35.999Z</time></trkpt><trkpt lat="45.15298506574525" lon="4.0640088386604365"><ele>910.0</ele><time>2026-03-31T09:53:36.999Z</time></trkpt><trkpt lat="45.153040731819246" lon="4.064095801599883"><ele>910.0</ele><time>2026-03-31T09:53:37.999Z</time></trkpt><trkpt lat="45.153078653174745" lon="4.064178932347966"><ele>910.0</ele><time>2026-03-31T09:53:38.999Z</time></trkpt><trkpt lat="45.153105485785105" lon="4.064270832725682"><ele>910.0</ele><time>2026-03-31T09:53:39.999Z</time></trkpt><trkpt lat="45.15312923442906" lon="4.0643865660048295"><ele>910.0</ele><time>2026-03-31T09:53:40.999Z</time></trkpt><trkpt lat="45.1531523763386" lon="4.064479273169428"><ele>910.0</ele><time>2026-03-31T09:53:41.999Z</time></trkpt><trkpt lat="45.15320638393949" lon="4.064645814758235"><ele>907.6666666666666</ele><time>2026-03-31T09:53:43.999Z</time></trkpt><trkpt lat="45.15324383140545" lon="4.064732881804052"><ele>905.3333333333333</ele><time>2026-03-31T09:53:44.999Z</time></trkpt><trkpt lat="45.15333390797692" lon="4.0648805217663435"><ele>903.0</ele><time>2026-03-31T09:53:46.999Z</time></trkpt><trkpt lat="45.15337855149198" lon="4.0649659294367035"><ele>900.6666666666667</ele><time>2026-03-31T09:53:47.999Z</time></trkpt><trkpt lat="45.15340589485528" lon="4.065057764884798"><ele>898.3333333333334</ele><time>2026-03-31T09:53:48.999Z</time></trkpt><trkpt lat="45.15341486655398" lon="4.065172854676331"><ele>896.0</ele><time>2026-03-31T09:53:49.999Z</time></trkpt><trkpt lat="45.15342985834123" lon="4.06528391785678"><ele>896.0000000000001</ele><time>2026-03-31T09:53:50.999Z</time></trkpt><trkpt lat="45.1534328600994" lon="4.065406959662355"><ele>896.0</ele><time>2026-03-31T09:53:51.999Z</time></trkpt><trkpt lat="45.15342773852522" lon="4.065513751527427"><ele>896.0</ele><time>2026-03-31T09:53:52.999Z</time></trkpt><trkpt lat="45.15342356210569" lon="4.065614823135567"><ele>896.0</ele><time>2026-03-31T09:53:53.998Z</time></trkpt><trkpt lat="45.15341740958328" lon="4.0657094524175275"><ele>896.0000000000001</ele><time>2026-03-31T09:53:54.998Z</time></trkpt><trkpt lat="45.15342360871043" lon="4.06590006838827"><ele>896.0</ele><time>2026-03-31T09:53:56.998Z</time></trkpt><trkpt lat="45.15343017293418" lon="4.0660024383680256"><ele>894.1666666666667</ele><time>2026-03-31T09:53:57.998Z</time></trkpt><trkpt lat="45.15345156908971" lon="4.066111308226254"><ele>892.3333333333334</ele><time>2026-03-31T09:53:58.998Z</time></trkpt><trkpt lat="45.153473712148454" lon="4.066230731152249"><ele>890.5</ele><time>2026-03-31T09:53:59.998Z</time></trkpt><trkpt lat="45.15350689741251" lon="4.066337439965052"><ele>888.6666666666667</ele><time>2026-03-31T09:54:00.998Z</time></trkpt><trkpt lat="45.15351919819672" lon="4.066447904717548"><ele>886.8333333333334</ele><time>2026-03-31T09:54:01.998Z</time></trkpt><trkpt lat="45.15350709819336" lon="4.066570976139763"><ele>885.0</ele><time>2026-03-31T09:54:02.998Z</time></trkpt><trkpt lat="45.15347042885912" lon="4.066698087797543"><ele>883.8333333333334</ele><time>2026-03-31T09:54:03.998Z</time></trkpt><trkpt lat="45.15343992640609" lon="4.0668113951107765"><ele>882.6666666666667</ele><time>2026-03-31T09:54:04.998Z</time></trkpt><trkpt lat="45.15343590542882" lon="4.066918173742365"><ele>881.5</ele><time>2026-03-31T09:54:05.998Z</time></trkpt><trkpt lat="45.15344222663068" lon="4.067028528712439"><ele>880.3333333333334</ele><time>2026-03-31T09:54:06.998Z</time></trkpt><trkpt lat="45.15345609625611" lon="4.0671329120799165"><ele>879.1666666666667</ele><time>2026-03-31T09:54:07.998Z</time></trkpt><trkpt lat="45.15346552933467" lon="4.067248946340208"><ele>878.0</ele><time>2026-03-31T09:54:08.998Z</time></trkpt><trkpt lat="45.15346182513644" lon="4.06735646930431"><ele>878.5000000000001</ele><time>2026-03-31T09:54:09.998Z</time></trkpt><trkpt lat="45.15344627809141" lon="4.0674791317578745"><ele>879.0</ele><time>2026-03-31T09:54:10.998Z</time></trkpt><trkpt lat="45.15343342760086" lon="4.0675790410367005"><ele>879.5</ele><time>2026-03-31T09:54:11.998Z</time></trkpt><trkpt lat="45.15344192455258" lon="4.067671093206234"><ele>880.0</ele><time>2026-03-31T09:54:12.998Z</time></trkpt><trkpt lat="45.15345578510443" lon="4.067803097458739"><ele>880.5000000000001</ele><time>2026-03-31T09:54:14.998Z</time></trkpt><trkpt lat="45.153489313430235" lon="4.067882704080534"><ele>881.0</ele><time>2026-03-31T09:54:16.998Z</time></trkpt><trkpt lat="45.15355525569133" lon="4.067993048585768"><ele>881.0</ele><time>2026-03-31T09:54:18.998Z</time></trkpt><trkpt lat="45.15371640507479" lon="4.068070287781898"><ele>880.9999999999999</ele><time>2026-03-31T09:54:19.998Z</time></trkpt><trkpt lat="45.153755270632395" lon="4.068142858403635"><ele>880.9999999999999</ele><time>2026-03-31T09:54:21Z</time></trkpt><trkpt lat="45.15380421913937" lon="4.068220309120933"><ele>881.0</ele><time>2026-03-31T09:54:22Z</time></trkpt><trkpt lat="45.15385519433971" lon="4.068301602627374"><ele>881.0</ele><time>2026-03-31T09:54:23Z</time></trkpt><trkpt lat="45.153908599510714" lon="4.0683972815170435"><ele>880.8</ele><time>2026-03-31T09:54:24Z</time></trkpt><trkpt lat="45.153965962559205" lon="4.068488731503787"><ele>880.5999999999999</ele><time>2026-03-31T09:54:25Z</time></trkpt><trkpt lat="45.15402220363366" lon="4.068597572855851"><ele>880.4</ele><time>2026-03-31T09:54:26Z</time></trkpt><trkpt lat="45.15408079990379" lon="4.06872659535014"><ele>880.2</ele><time>2026-03-31T09:54:27Z</time></trkpt><trkpt lat="45.15414958026455" lon="4.068869710901196"><ele>880.0</ele><time>2026-03-31T09:54:28Z</time></trkpt><trkpt lat="45.15422409318888" lon="4.0689916202617"><ele>877.4</ele><time>2026-03-31T09:54:29Z</time></trkpt><trkpt lat="45.154289235739455" lon="4.069086667419593"><ele>874.8</ele><time>2026-03-31T09:54:30Z</time></trkpt><trkpt lat="45.15435047460561" lon="4.069176339783922"><ele>872.2</ele><time>2026-03-31T09:54:31Z</time></trkpt><trkpt lat="45.154413535623874" lon="4.069274401772783"><ele>869.6</ele><time>2026-03-31T09:54:32Z</time></trkpt><trkpt lat="45.154478148208185" lon="4.06937902577305"><ele>867.0</ele><time>2026-03-31T09:54:33Z</time></trkpt><trkpt lat="45.154543523573786" lon="4.06948710981577"><ele>866.8</ele><time>2026-03-31T09:54:34Z</time></trkpt><trkpt lat="45.154603609959615" lon="4.069591392853778"><ele>866.6</ele><time>2026-03-31T09:54:35Z</time></trkpt><trkpt lat="45.15466920563451" lon="4.069699268964756"><ele>866.3999999999999</ele><time>2026-03-31T09:54:36Z</time></trkpt><trkpt lat="45.15473975112244" lon="4.069813514553068"><ele>866.1999999999999</ele><time>2026-03-31T09:54:37Z</time></trkpt><trkpt lat="45.15480503354939" lon="4.0699145174139675"><ele>866.0</ele><time>2026-03-31T09:54:38Z</time></trkpt><trkpt lat="45.154866108870074" lon="4.070027457779591"><ele>863.0</ele><time>2026-03-31T09:54:39Z</time></trkpt><trkpt lat="45.15493421668255" lon="4.0701388161384315"><ele>860.0</ele><time>2026-03-31T09:54:40Z</time></trkpt><trkpt lat="45.155013381056655" lon="4.070244406566944"><ele>857.0</ele><time>2026-03-31T09:54:41Z</time></trkpt><trkpt lat="45.155114371717204" lon="4.0703539879904005"><ele>854.0</ele><time>2026-03-31T09:54:42Z</time></trkpt><trkpt lat="45.15520992044927" lon="4.070443684015507"><ele>854.0</ele><time>2026-03-31T09:54:43Z</time></trkpt><trkpt lat="45.155305465793155" lon="4.070520720946714"><ele>854.0000000000001</ele><time>2026-03-31T09:54:44Z</time></trkpt><trkpt lat="45.15538059513392" lon="4.070615036168208"><ele>854.0000000000001</ele><time>2026-03-31T09:54:45Z</time></trkpt><trkpt lat="45.15544252912024" lon="4.070710270888657"><ele>854.0</ele><time>2026-03-31T09:54:46Z</time></trkpt><trkpt lat="45.1555032417005" lon="4.070810296590943"><ele>854.0</ele><time>2026-03-31T09:54:47Z</time></trkpt><trkpt lat="45.15557429565103" lon="4.070912780464568"><ele>853.4000000000001</ele><time>2026-03-31T09:54:48Z</time></trkpt><trkpt lat="45.1556509093303" lon="4.071009029486726"><ele>852.8000000000001</ele><time>2026-03-31T09:54:49Z</time></trkpt><trkpt lat="45.155723252001806" lon="4.071110682702911"><ele>852.2</ele><time>2026-03-31T09:54:50Z</time></trkpt><trkpt lat="45.1557869294691" lon="4.071210212922952"><ele>851.5999999999999</ele><time>2026-03-31T09:54:51Z</time></trkpt><trkpt lat="45.15585044321354" lon="4.071306534546954"><ele>851.0</ele><time>2026-03-31T09:54:52Z</time></trkpt><trkpt lat="45.15590836491778" lon="4.071393999526045"><ele>848.3333333333334</ele><time>2026-03-31T09:54:53Z</time></trkpt><trkpt lat="45.15596609031551" lon="4.071478970812635"><ele>845.6666666666667</ele><time>2026-03-31T09:54:54Z</time></trkpt><trkpt lat="45.156022807375535" lon="4.071560604062507"><ele>843.0</ele><time>2026-03-31T09:54:55Z</time></trkpt><trkpt lat="45.1560711703331" lon="4.071644817499466"><ele>840.3333333333333</ele><time>2026-03-31T09:54:56Z</time></trkpt><trkpt lat="45.15614361699488" lon="4.071734567026372"><ele>837.6666666666666</ele><time>2026-03-31T09:54:58Z</time></trkpt><trkpt lat="45.15624516472941" lon="4.0717460453788865"><ele>835.0</ele><time>2026-03-31T09:55:16.999Z</time></trkpt><trkpt lat="45.15630987796657" lon="4.071686434841077"><ele>834.9999999999999</ele><time>2026-03-31T09:55:17.999Z</time></trkpt><trkpt lat="45.156390866601896" lon="4.07162588312934"><ele>835.0</ele><time>2026-03-31T09:55:18.999Z</time></trkpt><trkpt lat="45.15647633126812" lon="4.071588746746955"><ele>835.0</ele><time>2026-03-31T09:55:19.999Z</time></trkpt><trkpt lat="45.15655843263642" lon="4.071578571776327"><ele>835.0</ele><time>2026-03-31T09:55:20.999Z</time></trkpt><trkpt lat="45.156628416271495" lon="4.071579165669547"><ele>834.9999999999999</ele><time>2026-03-31T09:55:21.999Z</time></trkpt><trkpt lat="45.15674160759162" lon="4.071577619800171"><ele>835.0</ele><time>2026-03-31T09:55:23.999Z</time></trkpt><trkpt lat="45.156800702743475" lon="4.0716095202279705"><ele>832.0</ele><time>2026-03-31T09:55:24.999Z</time></trkpt><trkpt lat="45.15685816738046" lon="4.071774119573425"><ele>829.0</ele><time>2026-03-31T09:55:26.999Z</time></trkpt><trkpt lat="45.15684241123833" lon="4.0718693466315745"><ele>826.0</ele><time>2026-03-31T09:55:27.999Z</time></trkpt><trkpt lat="45.1568571405139" lon="4.072045520628218"><ele>823.0</ele><time>2026-03-31T09:55:29.999Z</time></trkpt><trkpt lat="45.156899250374835" lon="4.072119317987994"><ele>820.0</ele><time>2026-03-31T09:55:30.999Z</time></trkpt><trkpt lat="45.15696523819193" lon="4.072165492632752"><ele>819.9999999999999</ele><time>2026-03-31T09:55:31.999Z</time></trkpt><trkpt lat="45.15702779707618" lon="4.072201386567599"><ele>820.0</ele><time>2026-03-31T09:55:32.999Z</time></trkpt><trkpt lat="45.15712830687704" lon="4.072311425399415"><ele>820.0</ele><time>2026-03-31T09:55:34.999Z</time></trkpt><trkpt lat="45.15714708104723" lon="4.072397990547141"><ele>820.0</ele><time>2026-03-31T09:55:35.999Z</time></trkpt><trkpt lat="45.15715600914432" lon="4.0724878941644045"><ele>819.9999999999999</ele><time>2026-03-31T09:55:36.999Z</time></trkpt><trkpt lat="45.15717101667839" lon="4.072585930280105"><ele>820.0</ele><time>2026-03-31T09:55:38.999Z</time></trkpt><trkpt lat="45.15719216855828" lon="4.072677747207723"><ele>819.3333333333333</ele><time>2026-03-31T09:56:08.998Z</time></trkpt><trkpt lat="45.15727064332899" lon="4.072709286813257"><ele>818.6666666666666</ele><time>2026-03-31T09:56:11.998Z</time></trkpt><trkpt lat="45.15735309854622" lon="4.072691490292906"><ele>818.0</ele><time>2026-03-31T09:56:13.998Z</time></trkpt><trkpt lat="45.15742581131824" lon="4.072670744959101"><ele>817.3333333333333</ele><time>2026-03-31T09:56:14.998Z</time></trkpt><trkpt lat="45.15749925732704" lon="4.072710528076856"><ele>816.6666666666666</ele><time>2026-03-31T09:56:15.998Z</time></trkpt><trkpt lat="45.157579524370014" lon="4.072823837078201"><ele>816.0</ele><time>2026-03-31T09:56:17.998Z</time></trkpt><trkpt lat="45.15760956152874" lon="4.072910669814117"><ele>815.1666666666666</ele><time>2026-03-31T09:56:18.998Z</time></trkpt><trkpt lat="45.15766263522089" lon="4.073039846172215"><ele>814.3333333333333</ele><time>2026-03-31T09:56:19.998Z</time></trkpt><trkpt lat="45.15770622715417" lon="4.07312527415915"><ele>813.5</ele><time>2026-03-31T09:56:20.998Z</time></trkpt><trkpt lat="45.1577728816617" lon="4.073229878268527"><ele>812.6666666666666</ele><time>2026-03-31T09:56:22.998Z</time></trkpt><trkpt lat="45.15781364629812" lon="4.073315622718536"><ele>811.8333333333333</ele><time>2026-03-31T09:56:23.998Z</time></trkpt><trkpt lat="45.15783413502521" lon="4.073420570659038"><ele>811.0</ele><time>2026-03-31T09:56:24.998Z</time></trkpt><trkpt lat="45.157855731571" lon="4.073514683186325"><ele>810.6666666666666</ele><time>2026-03-31T09:56:25.998Z</time></trkpt><trkpt lat="45.15784602075755" lon="4.073639542923105"><ele>810.3333333333333</ele><time>2026-03-31T09:56:28Z</time></trkpt><trkpt lat="45.15781710380984" lon="4.0737409239202576"><ele>810.0</ele><time>2026-03-31T09:56:31Z</time></trkpt><trkpt lat="45.1578386448289" lon="4.073851139210777"><ele>809.6666666666667</ele><time>2026-03-31T09:58:56Z</time></trkpt><trkpt lat="45.15791969669381" lon="4.073800147650661"><ele>809.3333333333334</ele><time>2026-03-31T09:58:58Z</time></trkpt><trkpt lat="45.15791567024393" lon="4.073680904550683"><ele>809.0</ele><time>2026-03-31T09:59:00Z</time></trkpt><trkpt lat="45.157866462879326" lon="4.073510698807844"><ele>809.0000000000001</ele><time>2026-03-31T09:59:02Z</time></trkpt><trkpt lat="45.157851895057895" lon="4.07338153118588"><ele>809.0</ele><time>2026-03-31T09:59:03Z</time></trkpt><trkpt lat="45.157829364875916" lon="4.0732640900942725"><ele>809.0</ele><time>2026-03-31T09:59:04Z</time></trkpt><trkpt lat="45.15778839776536" lon="4.073173618625658"><ele>809.0</ele><time>2026-03-31T09:59:05Z</time></trkpt><trkpt lat="45.15773711472256" lon="4.073116264468176"><ele>809.0000000000001</ele><time>2026-03-31T09:59:06Z</time></trkpt><trkpt lat="45.157692510818585" lon="4.07305013537959"><ele>809.0</ele><time>2026-03-31T09:59:07Z</time></trkpt><trkpt lat="45.15766186827931" lon="4.072955305110946"><ele>809.3333333333334</ele><time>2026-03-31T09:59:08Z</time></trkpt><trkpt lat="45.15762360774073" lon="4.072867628891727"><ele>809.6666666666667</ele><time>2026-03-31T09:59:09Z</time></trkpt><trkpt lat="45.15758141075999" lon="4.072799731372743"><ele>810.0</ele><time>2026-03-31T09:59:10Z</time></trkpt><trkpt lat="45.157545463710846" lon="4.072721942933408"><ele>810.3333333333333</ele><time>2026-03-31T09:59:11Z</time></trkpt><trkpt lat="45.15748644541623" lon="4.072641318537474"><ele>810.6666666666666</ele><time>2026-03-31T09:59:12Z</time></trkpt><trkpt lat="45.15738219336283" lon="4.072625704274594"><ele>811.0</ele><time>2026-03-31T09:59:13Z</time></trkpt><trkpt lat="45.157301829216266" lon="4.072619283625106"><ele>811.8333333333333</ele><time>2026-03-31T09:59:14Z</time></trkpt><trkpt lat="45.15723747832103" lon="4.07257470769606"><ele>812.6666666666666</ele><time>2026-03-31T09:59:15Z</time></trkpt><trkpt lat="45.15717880139963" lon="4.072495277686901"><ele>813.5</ele><time>2026-03-31T09:59:16Z</time></trkpt><trkpt lat="45.1571418707534" lon="4.07240277102554"><ele>814.3333333333333</ele><time>2026-03-31T09:59:17Z</time></trkpt><trkpt lat="45.15712566128838" lon="4.072289810976919"><ele>815.1666666666666</ele><time>2026-03-31T09:59:18Z</time></trkpt><trkpt lat="45.1570816413427" lon="4.07219940906401"><ele>816.0</ele><time>2026-03-31T09:59:19Z</time></trkpt><trkpt lat="45.15700403229573" lon="4.072134963660375"><ele>816.6666666666666</ele><time>2026-03-31T09:59:20Z</time></trkpt><trkpt lat="45.15693482328829" lon="4.072076420994062"><ele>817.3333333333333</ele><time>2026-03-31T09:59:21Z</time></trkpt><trkpt lat="45.156865634241434" lon="4.0720277763846955"><ele>818.0</ele><time>2026-03-31T09:59:22Z</time></trkpt><trkpt lat="45.15683512902151" lon="4.071915250355133"><ele>818.6666666666666</ele><time>2026-03-31T09:59:23Z</time></trkpt><trkpt lat="45.156866312986836" lon="4.0717859966938805"><ele>819.3333333333333</ele><time>2026-03-31T09:59:24Z</time></trkpt><trkpt lat="45.15686448894397" lon="4.0716657887445455"><ele>820.0</ele><time>2026-03-31T09:59:25Z</time></trkpt><trkpt lat="45.15684832805907" lon="4.071576741544068"><ele>819.9999999999999</ele><time>2026-03-31T09:59:26Z</time></trkpt><trkpt lat="45.15677703249915" lon="4.071514602856953"><ele>820.0</ele><time>2026-03-31T09:59:27Z</time></trkpt><trkpt lat="45.156682168863405" lon="4.0715459234245035"><ele>820.0</ele><time>2026-03-31T09:59:28Z</time></trkpt><trkpt lat="45.156592583263524" lon="4.071538904555821"><ele>820.0</ele><time>2026-03-31T09:59:29Z</time></trkpt><trkpt lat="45.156508705175185" lon="4.071553651116616"><ele>819.9999999999999</ele><time>2026-03-31T09:59:30Z</time></trkpt><trkpt lat="45.156431515081046" lon="4.07157404269438"><ele>820.0</ele><time>2026-03-31T09:59:31Z</time></trkpt><trkpt lat="45.15635230191206" lon="4.07161170369773"><ele>822.2</ele><time>2026-03-31T09:59:32Z</time></trkpt><trkpt lat="45.15627432314674" lon="4.071668571403133"><ele>824.4</ele><time>2026-03-31T09:59:33Z</time></trkpt><trkpt lat="45.15617795815944" lon="4.071745662191314"><ele>826.5999999999999</ele><time>2026-03-31T09:59:34.999Z</time></trkpt><trkpt lat="45.156105772884686" lon="4.071797175308874"><ele>828.8</ele><time>2026-03-31T09:59:36.999Z</time></trkpt><trkpt lat="45.15603254372021" lon="4.071850572296479"><ele>831.0</ele><time>2026-03-31T09:59:38.999Z</time></trkpt><trkpt lat="45.15590627519036" lon="4.071965086206875"><ele>831.0</ele><time>2026-03-31T09:59:40.999Z</time></trkpt><trkpt lat="45.15580582385465" lon="4.072019849283277"><ele>831.0</ele><time>2026-03-31T09:59:41.999Z</time></trkpt><trkpt lat="45.15569135249401" lon="4.0720784789329985"><ele>831.0</ele><time>2026-03-31T09:59:42.999Z</time></trkpt><trkpt lat="45.15556575685718" lon="4.072142551956146"><ele>831.0</ele><time>2026-03-31T09:59:43.999Z</time></trkpt><trkpt lat="45.155448414156986" lon="4.072175055726557"><ele>834.1666666666666</ele><time>2026-03-31T09:59:44.999Z</time></trkpt><trkpt lat="45.15537598389623" lon="4.072205705487522"><ele>837.3333333333333</ele><time>2026-03-31T09:59:45.999Z</time></trkpt><trkpt lat="45.1552845709537" lon="4.072244387877207"><ele>840.5</ele><time>2026-03-31T09:59:48.999Z</time></trkpt><trkpt lat="45.1552144121112" lon="4.072273047972654"><ele>843.6666666666666</ele><time>2026-03-31T09:59:50.999Z</time></trkpt><trkpt lat="45.15513728699377" lon="4.072334748528288"><ele>846.8333333333333</ele><time>2026-03-31T10:00:26.999Z</time></trkpt><trkpt lat="45.15522206092241" lon="4.072349579238652"><ele>850.0</ele><time>2026-03-31T10:00:29.998Z</time></trkpt><trkpt lat="45.15528440389797" lon="4.072288688726507"><ele>850.0</ele><time>2026-03-31T10:00:30.998Z</time></trkpt><trkpt lat="45.15541958077817" lon="4.072208099120266"><ele>850.0</ele><time>2026-03-31T10:00:31.998Z</time></trkpt><trkpt lat="45.15558872885027" lon="4.072164791847515"><ele>850.0</ele><time>2026-03-31T10:00:32.998Z</time></trkpt><trkpt lat="45.15571241777975" lon="4.072110896926007"><ele>850.0</ele><time>2026-03-31T10:00:33.998Z</time></trkpt><trkpt lat="45.15582275187664" lon="4.0720495080789005"><ele>847.0</ele><time>2026-03-31T10:00:34.998Z</time></trkpt><trkpt lat="45.155926962398084" lon="4.071972238646419"><ele>844.0</ele><time>2026-03-31T10:00:35.998Z</time></trkpt><trkpt lat="45.15602465002377" lon="4.071915435002854"><ele>841.0</ele><time>2026-03-31T10:00:37.001Z</time></trkpt><trkpt lat="45.15610100621105" lon="4.071863587785365"><ele>838.0</ele><time>2026-03-31T10:00:38.001Z</time></trkpt><trkpt lat="45.156178547579074" lon="4.0717787229430815"><ele>835.0</ele><time>2026-03-31T10:00:40.001Z</time></trkpt><trkpt lat="45.15606991227182" lon="4.071594184078147"><ele>834.9999999999999</ele><time>2026-03-31T10:00:50.001Z</time></trkpt><trkpt lat="45.15602015735633" lon="4.0714882828897725"><ele>835.0</ele><time>2026-03-31T10:00:51Z</time></trkpt><trkpt lat="45.15595811628559" lon="4.071391768081752"><ele>835.0</ele><time>2026-03-31T10:00:52Z</time></trkpt><trkpt lat="45.15588987206786" lon="4.071315883813474"><ele>835.0</ele><time>2026-03-31T10:00:53Z</time></trkpt><trkpt lat="45.15583015279969" lon="4.071230056427654"><ele>834.9999999999999</ele><time>2026-03-31T10:00:54Z</time></trkpt><trkpt lat="45.15577769822559" lon="4.07111748362994"><ele>835.0</ele><time>2026-03-31T10:00:55Z</time></trkpt><trkpt lat="45.155713258664385" lon="4.071021233904932"><ele>838.2</ele><time>2026-03-31T10:00:56Z</time></trkpt><trkpt lat="45.15563729967107" lon="4.0709120319870165"><ele>841.4</ele><time>2026-03-31T10:00:57Z</time></trkpt><trkpt lat="45.15556129068512" lon="4.070808907460546"><ele>844.5999999999999</ele><time>2026-03-31T10:00:58Z</time></trkpt><trkpt lat="45.15549302776423" lon="4.070721827645717"><ele>847.8</ele><time>2026-03-31T10:00:59Z</time></trkpt><trkpt lat="45.15541889843402" lon="4.070655924917508"><ele>851.0</ele><time>2026-03-31T10:01:00Z</time></trkpt><trkpt lat="45.15537574659453" lon="4.07058171734372"><ele>851.75</ele><time>2026-03-31T10:01:01Z</time></trkpt><trkpt lat="45.15525869434299" lon="4.070440216371464"><ele>852.5</ele><time>2026-03-31T10:01:03Z</time></trkpt><trkpt lat="45.15515797015718" lon="4.0703516992121545"><ele>853.25</ele><time>2026-03-31T10:01:04Z</time></trkpt><trkpt lat="45.15506256545262" lon="4.070213757252733"><ele>854.0</ele><time>2026-03-31T10:01:05Z</time></trkpt><trkpt lat="45.15495974361349" lon="4.0700920037985675"><ele>854.0</ele><time>2026-03-31T10:01:06Z</time></trkpt><trkpt lat="45.154875393153475" lon="4.069966858965165"><ele>854.0</ele><time>2026-03-31T10:01:07Z</time></trkpt><trkpt lat="45.154795102016266" lon="4.069834224356716"><ele>854.0</ele><time>2026-03-31T10:01:08Z</time></trkpt><trkpt lat="45.15470214842894" lon="4.069703584518268"><ele>854.0</ele><time>2026-03-31T10:01:09Z</time></trkpt><trkpt lat="45.154639432407414" lon="4.0695623402560415"><ele>857.0</ele><time>2026-03-31T10:01:10Z</time></trkpt><trkpt lat="45.15453945456023" lon="4.069433260137441"><ele>860.0</ele><time>2026-03-31T10:01:11Z</time></trkpt><trkpt lat="45.1544610735101" lon="4.069302982802254"><ele>863.0</ele><time>2026-03-31T10:01:12Z</time></trkpt><trkpt lat="45.15439951285942" lon="4.069173162539341"><ele>866.0</ele><time>2026-03-31T10:01:13Z</time></trkpt><trkpt lat="45.154311763925996" lon="4.069032273158639"><ele>866.25</ele><time>2026-03-31T10:01:14Z</time></trkpt><trkpt lat="45.154203512464626" lon="4.068890098138104"><ele>866.5</ele><time>2026-03-31T10:01:15Z</time></trkpt><trkpt lat="45.15411511477958" lon="4.068743170418078"><ele>866.75</ele><time>2026-03-31T10:01:16Z</time></trkpt><trkpt lat="45.15405599638442" lon="4.068584009918408"><ele>867.0</ele><time>2026-03-31T10:01:17Z</time></trkpt><trkpt lat="45.15395673127731" lon="4.068417608872973"><ele>870.5</ele><time>2026-03-31T10:01:18Z</time></trkpt><trkpt lat="45.15385102179361" lon="4.068232634708533"><ele>874.0</ele><time>2026-03-31T10:01:19Z</time></trkpt><trkpt lat="45.153767736421514" lon="4.068089034458255"><ele>877.5</ele><time>2026-03-31T10:01:20Z</time></trkpt><trkpt lat="45.15370852588289" lon="4.067988607059713"><ele>881.0</ele><time>2026-03-31T10:01:21Z</time></trkpt><trkpt lat="45.15365079475055" lon="4.067901815060101"><ele>881.0</ele><time>2026-03-31T10:01:22Z</time></trkpt><trkpt lat="45.153600681660926" lon="4.06782196554614"><ele>880.9999999999999</ele><time>2026-03-31T10:01:23Z</time></trkpt><trkpt lat="45.153542343545716" lon="4.067728155892503"><ele>880.9999999999999</ele><time>2026-03-31T10:01:25Z</time></trkpt><trkpt lat="45.15344311365372" lon="4.067782607376756"><ele>881.0</ele><time>2026-03-31T10:01:31Z</time></trkpt><trkpt lat="45.15344635088027" lon="4.067877101500229"><ele>881.0</ele><time>2026-03-31T10:02:26.998Z</time></trkpt><trkpt lat="45.15340438303977" lon="4.0680455365296595"><ele>881.0</ele><time>2026-03-31T10:02:28.998Z</time></trkpt><trkpt lat="45.153383752832646" lon="4.068178746863402"><ele>880.9999999999999</ele><time>2026-03-31T10:02:29.998Z</time></trkpt><trkpt lat="45.15337779596088" lon="4.068319097528173"><ele>880.9999999999999</ele><time>2026-03-31T10:02:30.998Z</time></trkpt><trkpt lat="45.153380383018686" lon="4.0684545605340325"><ele>881.0</ele><time>2026-03-31T10:02:31.998Z</time></trkpt><trkpt lat="45.153363897803935" lon="4.068598905578084"><ele>881.0</ele><time>2026-03-31T10:02:32.998Z</time></trkpt><trkpt lat="45.15333020956591" lon="4.068732545018733"><ele>880.8</ele><time>2026-03-31T10:02:33.998Z</time></trkpt><trkpt lat="45.153298211272904" lon="4.068839453622834"><ele>880.5999999999999</ele><time>2026-03-31T10:02:34.997Z</time></trkpt><trkpt lat="45.153267132046786" lon="4.068959666604581"><ele>880.4</ele><time>2026-03-31T10:02:35.997Z</time></trkpt><trkpt lat="45.1532410205669" lon="4.069120377757471"><ele>880.2</ele><time>2026-03-31T10:02:36.997Z</time></trkpt><trkpt lat="45.15322214488751" lon="4.069308293981872"><ele>880.0</ele><time>2026-03-31T10:02:37.997Z</time></trkpt><trkpt lat="45.15320928882287" lon="4.069446641524488"><ele>881.6</ele><time>2026-03-31T10:02:38.997Z</time></trkpt><trkpt lat="45.15319007275489" lon="4.0695828472365"><ele>883.2</ele><time>2026-03-31T10:02:39.997Z</time></trkpt><trkpt lat="45.153172492564906" lon="4.069714711568601"><ele>884.8</ele><time>2026-03-31T10:02:40.997Z</time></trkpt><trkpt lat="45.153151111777795" lon="4.069847429513318"><ele>886.4</ele><time>2026-03-31T10:02:41.997Z</time></trkpt><trkpt lat="45.15313489461575" lon="4.069966874516762"><ele>888.0</ele><time>2026-03-31T10:02:43Z</time></trkpt><trkpt lat="45.15310367466326" lon="4.070082625219361"><ele>888.0</ele><time>2026-03-31T10:02:44Z</time></trkpt><trkpt lat="45.15305173055158" lon="4.070167995112362"><ele>888.0</ele><time>2026-03-31T10:02:45Z</time></trkpt><trkpt lat="45.15299801195429" lon="4.070222450687666"><ele>888.0</ele><time>2026-03-31T10:02:46Z</time></trkpt><trkpt lat="45.152926531028456" lon="4.0702564621692545"><ele>888.0</ele><time>2026-03-31T10:02:47Z</time></trkpt><trkpt lat="45.15283740171325" lon="4.070290954767185"><ele>888.0</ele><time>2026-03-31T10:02:48Z</time></trkpt><trkpt lat="45.15275980162932" lon="4.070323772849041"><ele>888.0</ele><time>2026-03-31T10:02:49Z</time></trkpt><trkpt lat="45.15268067116796" lon="4.070372703945015"><ele>888.0</ele><time>2026-03-31T10:02:50Z</time></trkpt><trkpt lat="45.15258778089052" lon="4.070431913070029"><ele>888.0</ele><time>2026-03-31T10:02:51Z</time></trkpt><trkpt lat="45.15249933180078" lon="4.0704943895197685"><ele>888.0</ele><time>2026-03-31T10:02:52Z</time></trkpt><trkpt lat="45.15241186225861" lon="4.07054363132983"><ele>888.0</ele><time>2026-03-31T10:02:53Z</time></trkpt><trkpt lat="45.15232319357322" lon="4.070582152444293"><ele>888.0</ele><time>2026-03-31T10:02:54Z</time></trkpt><trkpt lat="45.15223372581265" lon="4.070608643483933"><ele>892.2</ele><time>2026-03-31T10:02:55Z</time></trkpt><trkpt lat="45.15215528448693" lon="4.07063619601773"><ele>896.4</ele><time>2026-03-31T10:02:56Z</time></trkpt><trkpt lat="45.15207291817026" lon="4.070693084291178"><ele>900.6000000000001</ele><time>2026-03-31T10:02:57Z</time></trkpt><trkpt lat="45.15199853251337" lon="4.070774404393751"><ele>904.8000000000001</ele><time>2026-03-31T10:02:58Z</time></trkpt><trkpt lat="45.15191362527004" lon="4.070882940564915"><ele>909.0</ele><time>2026-03-31T10:02:59Z</time></trkpt><trkpt lat="45.15182429492342" lon="4.0709911286536"><ele>909.0</ele><time>2026-03-31T10:02:59.999Z</time></trkpt><trkpt lat="45.151707494006416" lon="4.07111102629107"><ele>909.0000000000001</ele><time>2026-03-31T10:03:00.999Z</time></trkpt><trkpt lat="45.1516126559578" lon="4.071207005119274"><ele>909.0000000000001</ele><time>2026-03-31T10:03:01.999Z</time></trkpt><trkpt lat="45.15156056103094" lon="4.071276870730421"><ele>909.0</ele><time>2026-03-31T10:03:02.999Z</time></trkpt><trkpt lat="45.151514467068985" lon="4.071346287908603"><ele>909.0</ele><time>2026-03-31T10:03:04.999Z</time></trkpt><trkpt lat="45.15151012892766" lon="4.071471842194471"><ele>909.0</ele><time>2026-03-31T10:04:31.998Z</time></trkpt><trkpt lat="45.15151691361948" lon="4.071581768841386"><ele>909.0</ele><time>2026-03-31T10:04:32.998Z</time></trkpt><trkpt lat="45.15150926683644" lon="4.071707831700534"><ele>909.0</ele><time>2026-03-31T10:04:33.998Z</time></trkpt><trkpt lat="45.15151163737029" lon="4.071832944141052"><ele>909.0</ele><time>2026-03-31T10:04:34.998Z</time></trkpt><trkpt lat="45.151511940253464" lon="4.071947109443115"><ele>909.0</ele><time>2026-03-31T10:04:35.998Z</time></trkpt><trkpt lat="45.15150527566434" lon="4.072055231079717"><ele>909.0</ele><time>2026-03-31T10:04:36.998Z</time></trkpt><trkpt lat="45.15150740017285" lon="4.072183339196571"><ele>909.0</ele><time>2026-03-31T10:04:37.998Z</time></trkpt><trkpt lat="45.1515155575773" lon="4.072331273680213"><ele>909.0000000000001</ele><time>2026-03-31T10:04:38.998Z</time></trkpt><trkpt lat="45.15153321626956" lon="4.072479440877728"><ele>909.0000000000001</ele><time>2026-03-31T10:04:39.998Z</time></trkpt><trkpt lat="45.151541962266634" lon="4.0726188055156"><ele>909.0</ele><time>2026-03-31T10:04:40.998Z</time></trkpt><trkpt lat="45.151549819725865" lon="4.0727497854943495"><ele>909.0</ele><time>2026-03-31T10:04:41.998Z</time></trkpt><trkpt lat="45.15155846895952" lon="4.072863048974528"><ele>906.5714285714286</ele><time>2026-03-31T10:04:42.998Z</time></trkpt><trkpt lat="45.15156937329959" lon="4.072970823657214"><ele>904.1428571428572</ele><time>2026-03-31T10:04:43.998Z</time></trkpt><trkpt lat="45.15158087700389" lon="4.073067425344558"><ele>901.7142857142858</ele><time>2026-03-31T10:04:44.998Z</time></trkpt><trkpt lat="45.15160404425068" lon="4.073168567741301"><ele>899.2857142857142</ele><time>2026-03-31T10:04:45.998Z</time></trkpt><trkpt lat="45.15164423455887" lon="4.073251812074941"><ele>896.8571428571429</ele><time>2026-03-31T10:04:46.997Z</time></trkpt><trkpt lat="45.1516836854108" lon="4.073329423504516"><ele>894.4285714285714</ele><time>2026-03-31T10:04:47.997Z</time></trkpt><trkpt lat="45.15171949228276" lon="4.073402868848231"><ele>892.0</ele><time>2026-03-31T10:04:49Z</time></trkpt><trkpt lat="45.15174475445148" lon="4.0734862245364685"><ele>891.2</ele><time>2026-03-31T10:04:50Z</time></trkpt><trkpt lat="45.151800788143056" lon="4.073606981852935"><ele>890.4000000000001</ele><time>2026-03-31T10:04:52Z</time></trkpt><trkpt lat="45.15186920680531" lon="4.07375150910702"><ele>889.5999999999999</ele><time>2026-03-31T10:04:54Z</time></trkpt><trkpt lat="45.15193207537776" lon="4.073803164558335"><ele>888.8</ele><time>2026-03-31T10:04:55Z</time></trkpt><trkpt lat="45.151986123645095" lon="4.073895986778834"><ele>888.0</ele><time>2026-03-31T10:04:56Z</time></trkpt><trkpt lat="45.15204387359309" lon="4.073985104848938"><ele>888.0</ele><time>2026-03-31T10:04:57Z</time></trkpt><trkpt lat="45.15209911476942" lon="4.074083932673195"><ele>888.0</ele><time>2026-03-31T10:04:58Z</time></trkpt><trkpt lat="45.15215243745252" lon="4.0741879454232475"><ele>888.0</ele><time>2026-03-31T10:04:59Z</time></trkpt><trkpt lat="45.152197052059705" lon="4.074293266171932"><ele>888.0</ele><time>2026-03-31T10:05:00Z</time></trkpt><trkpt lat="45.152251698881244" lon="4.074381864103755"><ele>888.0</ele><time>2026-03-31T10:05:01Z</time></trkpt><trkpt lat="45.15231309605488" lon="4.074472109899717"><ele>888.0</ele><time>2026-03-31T10:05:02Z</time></trkpt><trkpt lat="45.15237514142772" lon="4.074549001541997"><ele>885.8</ele><time>2026-03-31T10:05:03Z</time></trkpt><trkpt lat="45.152452785858756" lon="4.074626896405709"><ele>883.5999999999999</ele><time>2026-03-31T10:05:04Z</time></trkpt><trkpt lat="45.152534925189045" lon="4.074695364424012"><ele>881.4000000000001</ele><time>2026-03-31T10:05:05Z</time></trkpt><trkpt lat="45.15262010206825" lon="4.07473174942557"><ele>879.2</ele><time>2026-03-31T10:05:06Z</time></trkpt><trkpt lat="45.15270174460297" lon="4.074769960852678"><ele>877.0</ele><time>2026-03-31T10:05:07Z</time></trkpt><trkpt lat="45.15278649766303" lon="4.074793320289088"><ele>877.0</ele><time>2026-03-31T10:05:08Z</time></trkpt><trkpt lat="45.15286606300928" lon="4.074692951158862"><ele>877.0</ele><time>2026-03-31T10:05:09Z</time></trkpt><trkpt lat="45.152916668800295" lon="4.074587077568792"><ele>877.0</ele><time>2026-03-31T10:05:10Z</time></trkpt><trkpt lat="45.15298263444866" lon="4.0744680021652915"><ele>877.0</ele><time>2026-03-31T10:05:11Z</time></trkpt><trkpt lat="45.15305170692751" lon="4.0743196766584"><ele>877.0</ele><time>2026-03-31T10:05:11.999Z</time></trkpt><trkpt lat="45.15314308334642" lon="4.074185987689172"><ele>876.4999999999999</ele><time>2026-03-31T10:05:12.999Z</time></trkpt><trkpt lat="45.15321229796143" lon="4.074060927245873"><ele>876.0</ele><time>2026-03-31T10:05:13.999Z</time></trkpt><trkpt lat="45.15327295699835" lon="4.0739513251938435"><ele>875.5</ele><time>2026-03-31T10:05:14.999Z</time></trkpt><trkpt lat="45.153320581137756" lon="4.073867169710976"><ele>875.0</ele><time>2026-03-31T10:05:15.999Z</time></trkpt><trkpt lat="45.153361788814344" lon="4.073797448043987"><ele>874.4999999999999</ele><time>2026-03-31T10:05:16.999Z</time></trkpt><trkpt lat="45.15342010873503" lon="4.0737058838200815"><ele>874.0</ele><time>2026-03-31T10:05:18.999Z</time></trkpt><trkpt lat="45.153477579856606" lon="4.0736219929487945"><ele>874.0</ele><time>2026-03-31T10:05:21.999Z</time></trkpt><trkpt lat="45.153531818968524" lon="4.073547912617021"><ele>874.0000000000001</ele><time>2026-03-31T10:05:22.999Z</time></trkpt><trkpt lat="45.15356939613877" lon="4.073472537702508"><ele>874.0000000000001</ele><time>2026-03-31T10:05:23.999Z</time></trkpt><trkpt lat="45.15362302277679" lon="4.073422208269979"><ele>874.0</ele><time>2026-03-31T10:05:26.999Z</time></trkpt><trkpt lat="45.15367420609371" lon="4.073625554940884"><ele>874.0</ele><time>2026-03-31T10:05:31.999Z</time></trkpt><trkpt lat="45.15373679935289" lon="4.0737543754104415"><ele>873.9999999999999</ele><time>2026-03-31T10:05:33.999Z</time></trkpt><trkpt lat="45.15378595025756" lon="4.073829778303383"><ele>874.0</ele><time>2026-03-31T10:05:34.999Z</time></trkpt><trkpt lat="45.153824778857256" lon="4.073914624449437"><ele>874.0</ele><time>2026-03-31T10:05:35.999Z</time></trkpt><trkpt lat="45.15385922884709" lon="4.073994246384187"><ele>874.0</ele><time>2026-03-31T10:05:36.999Z</time></trkpt><trkpt lat="45.15392027348712" lon="4.0741458951517835"><ele>873.9999999999999</ele><time>2026-03-31T10:05:38.999Z</time></trkpt><trkpt lat="45.15393133511417" lon="4.07424297855352"><ele>874.0</ele><time>2026-03-31T10:05:39.999Z</time></trkpt><trkpt lat="45.15391871930345" lon="4.074417143566844"><ele>873.1428571428571</ele><time>2026-03-31T10:05:41.999Z</time></trkpt><trkpt lat="45.153932042947794" lon="4.074505308753067"><ele>872.2857142857143</ele><time>2026-03-31T10:05:42.999Z</time></trkpt><trkpt lat="45.15393697867166" lon="4.074604064787499"><ele>871.4285714285714</ele><time>2026-03-31T10:05:43.999Z</time></trkpt><trkpt lat="45.153949360025955" lon="4.074711974868628"><ele>870.5714285714286</ele><time>2026-03-31T10:05:44.999Z</time></trkpt><trkpt lat="45.15394891703663" lon="4.074818234831777"><ele>869.7142857142858</ele><time>2026-03-31T10:05:45.999Z</time></trkpt><trkpt lat="45.15394928862977" lon="4.074916018298811"><ele>868.8571428571429</ele><time>2026-03-31T10:05:46.999Z</time></trkpt><trkpt lat="45.15394612532358" lon="4.075016472273462"><ele>868.0</ele><time>2026-03-31T10:05:47.999Z</time></trkpt><trkpt lat="45.15390495909686" lon="4.075181008836925"><ele>867.9999999999999</ele><time>2026-03-31T10:05:49.999Z</time></trkpt><trkpt lat="45.153885774702324" lon="4.0752756232675775"><ele>868.0</ele><time>2026-03-31T10:05:50.999Z</time></trkpt><trkpt lat="45.153898290574276" lon="4.075363114117375"><ele>868.0</ele><time>2026-03-31T10:05:51.999Z</time></trkpt><trkpt lat="45.15392932465912" lon="4.075528882849119"><ele>868.0</ele><time>2026-03-31T10:05:53.999Z</time></trkpt><trkpt lat="45.15394758249889" lon="4.075671212533487"><ele>867.9999999999999</ele><time>2026-03-31T10:05:55.999Z</time></trkpt><trkpt lat="45.15401447448299" lon="4.0757068710652"><ele>868.0</ele><time>2026-03-31T10:05:58.999Z</time></trkpt><trkpt lat="45.15400979412147" lon="4.075609924524936"><ele>864.5999999999999</ele><time>2026-03-31T10:06:01.999Z</time></trkpt><trkpt lat="45.1540701344761" lon="4.075686315625872"><ele>861.1999999999999</ele><time>2026-03-31T10:06:04.999Z</time></trkpt><trkpt lat="45.15413813389394" lon="4.075765318193431"><ele>857.8</ele><time>2026-03-31T10:06:06.998Z</time></trkpt><trkpt lat="45.15422748973589" lon="4.075839605014879"><ele>854.4</ele><time>2026-03-31T10:06:08.998Z</time></trkpt><trkpt lat="45.15431377464538" lon="4.075945399818995"><ele>851.0</ele><time>2026-03-31T10:06:11.998Z</time></trkpt><trkpt lat="45.15435035165235" lon="4.076024715856322"><ele>850.0000000000001</ele><time>2026-03-31T10:06:13.998Z</time></trkpt><trkpt lat="45.15439856894198" lon="4.07613263924754"><ele>849.0</ele><time>2026-03-31T10:06:15.998Z</time></trkpt><trkpt lat="45.15444608731842" lon="4.0762202524263405"><ele>848.0</ele><time>2026-03-31T10:06:17.998Z</time></trkpt><trkpt lat="45.15448729082343" lon="4.076292376575254"><ele>847.0</ele><time>2026-03-31T10:06:19.998Z</time></trkpt><trkpt lat="45.154524931597884" lon="4.0763800705356665"><ele>846.0000000000001</ele><time>2026-03-31T10:06:21.998Z</time></trkpt><trkpt lat="45.154569865900065" lon="4.076495041420216"><ele>845.0</ele><time>2026-03-31T10:06:23.998Z</time></trkpt><trkpt lat="45.154575673802675" lon="4.076629881712666"><ele>843.6666666666667</ele><time>2026-03-31T10:06:26.998Z</time></trkpt><trkpt lat="45.15461072685108" lon="4.076709488447704"><ele>842.3333333333334</ele><time>2026-03-31T10:06:29.998Z</time></trkpt><trkpt lat="45.1546902150155" lon="4.076891675646733"><ele>841.0</ele><time>2026-03-31T10:06:31.998Z</time></trkpt><trkpt lat="45.15474285309312" lon="4.076961003313658"><ele>839.6666666666667</ele><time>2026-03-31T10:06:32.998Z</time></trkpt><trkpt lat="45.154793882647944" lon="4.0770274801558"><ele>838.3333333333334</ele><time>2026-03-31T10:06:33.998Z</time></trkpt><trkpt lat="45.1548455623209" lon="4.077098310397164"><ele>837.0</ele><time>2026-03-31T10:06:34.998Z</time></trkpt><trkpt lat="45.15489196193078" lon="4.07716968095889"><ele>835.4000000000001</ele><time>2026-03-31T10:06:35.998Z</time></trkpt><trkpt lat="45.154957010526886" lon="4.077272116187305"><ele>833.8000000000001</ele><time>2026-03-31T10:06:37.998Z</time></trkpt><trkpt lat="45.15495204400643" lon="4.077385629537257"><ele>832.2</ele><time>2026-03-31T10:06:53.998Z</time></trkpt><trkpt lat="45.15485224829677" lon="4.077505824723108"><ele>830.6</ele><time>2026-03-31T10:06:56Z</time></trkpt><trkpt lat="45.15479596798615" lon="4.07757268315133"><ele>829.0</ele><time>2026-03-31T10:06:57Z</time></trkpt><trkpt lat="45.15468737786199" lon="4.0776765082769275"><ele>829.0</ele><time>2026-03-31T10:06:59Z</time></trkpt><trkpt lat="45.154593140705124" lon="4.077796835073779"><ele>829.0</ele><time>2026-03-31T10:07:00Z</time></trkpt><trkpt lat="45.154468289216545" lon="4.077988306881505"><ele>829.0</ele><time>2026-03-31T10:07:01Z</time></trkpt><trkpt lat="45.15439712203402" lon="4.0781112498101475"><ele>829.0</ele><time>2026-03-31T10:07:02Z</time></trkpt><trkpt lat="45.15430189329209" lon="4.078191747879667"><ele>828.6</ele><time>2026-03-31T10:07:03Z</time></trkpt><trkpt lat="45.154227613452456" lon="4.078299502197783"><ele>828.2</ele><time>2026-03-31T10:07:04Z</time></trkpt><trkpt lat="45.15414863721132" lon="4.078419570539776"><ele>827.8000000000001</ele><time>2026-03-31T10:07:05Z</time></trkpt><trkpt lat="45.1540808072912" lon="4.0785457767110955"><ele>827.4000000000001</ele><time>2026-03-31T10:07:06Z</time></trkpt><trkpt lat="45.15399583343349" lon="4.078650955285779"><ele>827.0</ele><time>2026-03-31T10:07:07Z</time></trkpt><trkpt lat="45.15390437505293" lon="4.078729909872014"><ele>827.4000000000001</ele><time>2026-03-31T10:07:08Z</time></trkpt><trkpt lat="45.15381352287282" lon="4.0788081556203855"><ele>827.8000000000001</ele><time>2026-03-31T10:07:09Z</time></trkpt><trkpt lat="45.15373923239131" lon="4.07888481496676"><ele>828.2</ele><time>2026-03-31T10:07:10Z</time></trkpt><trkpt lat="45.15367863608675" lon="4.078965383670386"><ele>828.6</ele><time>2026-03-31T10:07:11Z</time></trkpt><trkpt lat="45.15362737833121" lon="4.079060623329283"><ele>829.0</ele><time>2026-03-31T10:07:12Z</time></trkpt><trkpt lat="45.153564201351706" lon="4.079168115303035"><ele>829.0</ele><time>2026-03-31T10:07:13Z</time></trkpt><trkpt lat="45.1534939103776" lon="4.079272176380533"><ele>829.0</ele><time>2026-03-31T10:07:14Z</time></trkpt><trkpt lat="45.15341995886269" lon="4.0793521435337725"><ele>829.0</ele><time>2026-03-31T10:07:15Z</time></trkpt><trkpt lat="45.15333966387616" lon="4.079395312718627"><ele>829.0</ele><time>2026-03-31T10:07:16Z</time></trkpt><trkpt lat="45.153239599616" lon="4.079441354956534"><ele>829.0</ele><time>2026-03-31T10:07:17Z</time></trkpt><trkpt lat="45.15313080823685" lon="4.079488991329265"><ele>829.4000000000001</ele><time>2026-03-31T10:07:18Z</time></trkpt><trkpt lat="45.153027851930844" lon="4.079541341953443"><ele>829.8</ele><time>2026-03-31T10:07:19Z</time></trkpt><trkpt lat="45.152936238665056" lon="4.079623194713193"><ele>830.2</ele><time>2026-03-31T10:07:20Z</time></trkpt><trkpt lat="45.15284511850333" lon="4.079719801517379"><ele>830.5999999999999</ele><time>2026-03-31T10:07:21Z</time></trkpt><trkpt lat="45.15275471435246" lon="4.079823727559373"><ele>831.0</ele><time>2026-03-31T10:07:21.999Z</time></trkpt><trkpt lat="45.15267238313892" lon="4.079915209692068"><ele>830.1999999999999</ele><time>2026-03-31T10:07:22.999Z</time></trkpt><trkpt lat="45.15258716674648" lon="4.080003916279119"><ele>829.4</ele><time>2026-03-31T10:07:23.999Z</time></trkpt><trkpt lat="45.15250807156403" lon="4.080078688493088"><ele>828.6</ele><time>2026-03-31T10:07:24.999Z</time></trkpt><trkpt lat="45.15243660646567" lon="4.080159636976266"><ele>827.8</ele><time>2026-03-31T10:07:25.999Z</time></trkpt><trkpt lat="45.15238607500611" lon="4.080249505626878"><ele>827.0</ele><time>2026-03-31T10:07:26.999Z</time></trkpt><trkpt lat="45.15232360885783" lon="4.0803385810736605"><ele>827.0</ele><time>2026-03-31T10:07:27.999Z</time></trkpt><trkpt lat="45.152243781042756" lon="4.080413290546513"><ele>827.0</ele><time>2026-03-31T10:07:28.999Z</time></trkpt><trkpt lat="45.152151813902634" lon="4.080479357121055"><ele>827.0</ele><time>2026-03-31T10:07:29.999Z</time></trkpt><trkpt lat="45.15205290219914" lon="4.080544592170337"><ele>827.0</ele><time>2026-03-31T10:07:30.999Z</time></trkpt><trkpt lat="45.15195334322169" lon="4.080604313903785"><ele>827.0</ele><time>2026-03-31T10:07:31.999Z</time></trkpt><trkpt lat="45.15186093120647" lon="4.080653812290792"><ele>827.0</ele><time>2026-03-31T10:07:32.999Z</time></trkpt><trkpt lat="45.151777975697435" lon="4.080705234746432"><ele>827.0</ele><time>2026-03-31T10:07:33.999Z</time></trkpt><trkpt lat="45.151700343899755" lon="4.080751969063778"><ele>827.0</ele><time>2026-03-31T10:07:34.999Z</time></trkpt><trkpt lat="45.151612066793625" lon="4.080809801670384"><ele>827.0</ele><time>2026-03-31T10:07:35.999Z</time></trkpt><trkpt lat="45.1515204175234" lon="4.0808794256161205"><ele>827.0</ele><time>2026-03-31T10:07:36.999Z</time></trkpt><trkpt lat="45.15143704855665" lon="4.080965345127971"><ele>826.8333333333334</ele><time>2026-03-31T10:07:37.999Z</time></trkpt><trkpt lat="45.15137496376194" lon="4.081056703752"><ele>826.6666666666667</ele><time>2026-03-31T10:07:38.999Z</time></trkpt><trkpt lat="45.151323494146204" lon="4.081157626596029"><ele>826.5</ele><time>2026-03-31T10:07:39.999Z</time></trkpt><trkpt lat="45.15128422811374" lon="4.081278111765875"><ele>826.3333333333333</ele><time>2026-03-31T10:07:40.999Z</time></trkpt><trkpt lat="45.151245795894944" lon="4.081385104730078"><ele>826.1666666666666</ele><time>2026-03-31T10:07:41.999Z</time></trkpt><trkpt lat="45.15121285034484" lon="4.081469687292096"><ele>826.0</ele><time>2026-03-31T10:07:42.999Z</time></trkpt><trkpt lat="45.15115358360881" lon="4.081610829803049"><ele>823.9999999999999</ele><time>2026-03-31T10:07:44.999Z</time></trkpt><trkpt lat="45.15111993287529" lon="4.081724977432586"><ele>822.0</ele><time>2026-03-31T10:07:45.999Z</time></trkpt><trkpt lat="45.15110003908233" lon="4.081835961327483"><ele>820.0</ele><time>2026-03-31T10:07:46.999Z</time></trkpt><trkpt lat="45.1510594824088" lon="4.081909331417835"><ele>818.0</ele><time>2026-03-31T10:07:47.999Z</time></trkpt><trkpt lat="45.150984700325466" lon="4.081932856883681"><ele>815.9999999999999</ele><time>2026-03-31T10:07:48.999Z</time></trkpt><trkpt lat="45.15091240011332" lon="4.081956758099316"><ele>814.0</ele><time>2026-03-31T10:07:49.999Z</time></trkpt><trkpt lat="45.150852467243446" lon="4.082110667696186"><ele>813.9999999999999</ele><time>2026-03-31T10:07:50.999Z</time></trkpt><trkpt lat="45.150754147993645" lon="4.082128101151832"><ele>814.0</ele><time>2026-03-31T10:07:52.999Z</time></trkpt><trkpt lat="45.15068482875353" lon="4.0821307502246675"><ele>814.0</ele><time>2026-03-31T10:08:11.999Z</time></trkpt><trkpt lat="45.15058187349584" lon="4.082193880918743"><ele>814.0</ele><time>2026-03-31T10:08:13.999Z</time></trkpt><trkpt lat="45.150509883637234" lon="4.082244010198201"><ele>813.9999999999999</ele><time>2026-03-31T10:08:14.999Z</time></trkpt><trkpt lat="45.1504456408462" lon="4.082290604117361"><ele>814.0</ele><time>2026-03-31T10:08:15.998Z</time></trkpt><trkpt lat="45.15038277895695" lon="4.082337305468003"><ele>814.4000000000001</ele><time>2026-03-31T10:08:16.998Z</time></trkpt><trkpt lat="45.15033625803944" lon="4.082401230769545"><ele>814.8</ele><time>2026-03-31T10:08:17.998Z</time></trkpt><trkpt lat="45.150254579136366" lon="4.082501175187018"><ele>815.2</ele><time>2026-03-31T10:08:19.998Z</time></trkpt><trkpt lat="45.150174056877475" lon="4.082602875573519"><ele>815.5999999999999</ele><time>2026-03-31T10:08:21.998Z</time></trkpt><trkpt lat="45.15011243397422" lon="4.0826866025764925"><ele>816.0</ele><time>2026-03-31T10:08:22.998Z</time></trkpt><trkpt lat="45.15005307324209" lon="4.0827785062646065"><ele>815.5</ele><time>2026-03-31T10:08:23.998Z</time></trkpt><trkpt lat="45.14998635801555" lon="4.082877091835447"><ele>815.0</ele><time>2026-03-31T10:08:24.998Z</time></trkpt><trkpt lat="45.14992612375726" lon="4.082967926007079"><ele>814.5</ele><time>2026-03-31T10:08:25.998Z</time></trkpt><trkpt lat="45.14988100497649" lon="4.083036001554654"><ele>814.0</ele><time>2026-03-31T10:08:26.998Z</time></trkpt><trkpt lat="45.14982331197621" lon="4.083122651596299"><ele>813.5</ele><time>2026-03-31T10:08:27.998Z</time></trkpt><trkpt lat="45.14976567086408" lon="4.083207972221459"><ele>813.0</ele><time>2026-03-31T10:08:28.998Z</time></trkpt><trkpt lat="45.149701888134075" lon="4.0833023837581806"><ele>812.8</ele><time>2026-03-31T10:08:29.998Z</time></trkpt><trkpt lat="45.1496448535004" lon="4.083386806675972"><ele>812.5999999999999</ele><time>2026-03-31T10:08:30.998Z</time></trkpt><trkpt lat="45.1495795447624" lon="4.083484151681574"><ele>812.4000000000001</ele><time>2026-03-31T10:08:32.998Z</time></trkpt><trkpt lat="45.14951065313834" lon="4.083578433106303"><ele>812.2</ele><time>2026-03-31T10:08:34.998Z</time></trkpt><trkpt lat="45.14944890657295" lon="4.083661091079019"><ele>812.0</ele><time>2026-03-31T10:08:35.998Z</time></trkpt><trkpt lat="45.14937495154821" lon="4.083748515419838"><ele>813.0</ele><time>2026-03-31T10:08:36.998Z</time></trkpt><trkpt lat="45.14903917080909" lon="4.083316426699618"><ele>813.0</ele><time>2026-03-31T10:08:37.998Z</time></trkpt><trkpt lat="45.148953350897976" lon="4.083338723351773"><ele>813.0</ele><time>2026-03-31T10:08:38.998Z</time></trkpt><trkpt lat="45.14886661115292" lon="4.083388062565683"><ele>813.0</ele><time>2026-03-31T10:08:39.998Z</time></trkpt><trkpt lat="45.14878131654826" lon="4.083437230842345"><ele>813.0</ele><time>2026-03-31T10:08:40.998Z</time></trkpt><trkpt lat="45.14870086123165" lon="4.083426394171112"><ele>813.0</ele><time>2026-03-31T10:08:41.998Z</time></trkpt><trkpt lat="45.1486248445553" lon="4.083430574917329"><ele>813.0</ele><time>2026-03-31T10:08:42.998Z</time></trkpt><trkpt lat="45.1485533584922" lon="4.0834363722634865"><ele>813.0</ele><time>2026-03-31T10:08:43.998Z</time></trkpt><trkpt lat="45.148469845440054" lon="4.083459012329213"><ele>813.0</ele><time>2026-03-31T10:08:44.998Z</time></trkpt><trkpt lat="45.148368914889154" lon="4.083503273154933"><ele>813.0</ele><time>2026-03-31T10:08:45.998Z</time></trkpt><trkpt lat="45.148271249024816" lon="4.083519209059831"><ele>813.0</ele><time>2026-03-31T10:08:46.998Z</time></trkpt><trkpt lat="45.14819782556564" lon="4.083509601380144"><ele>813.0</ele><time>2026-03-31T10:08:47.998Z</time></trkpt><trkpt lat="45.148130214792175" lon="4.083504949935433"><ele>813.0</ele><time>2026-03-31T10:08:48.998Z</time></trkpt><trkpt lat="45.14802986049369" lon="4.0835302822767385"><ele>812.5</ele><time>2026-03-31T10:08:49.998Z</time></trkpt><trkpt lat="45.14793323914033" lon="4.0835593360791975"><ele>812.0</ele><time>2026-03-31T10:08:50.998Z</time></trkpt><trkpt lat="45.147847758990494" lon="4.083592259246853"><ele>811.5</ele><time>2026-03-31T10:08:51.998Z</time></trkpt><trkpt lat="45.14777987656274" lon="4.083620452134832"><ele>811.0</ele><time>2026-03-31T10:08:52.998Z</time></trkpt><trkpt lat="45.14771654363045" lon="4.08362657465989"><ele>810.5</ele><time>2026-03-31T10:08:53.998Z</time></trkpt><trkpt lat="45.14763075396013" lon="4.083643349630456"><ele>810.0</ele><time>2026-03-31T10:08:55.998Z</time></trkpt><trkpt lat="45.147556430163256" lon="4.083629859519444"><ele>810.0</ele><time>2026-03-31T10:09:05Z</time></trkpt><trkpt lat="45.14748468043593" lon="4.083627918953406"><ele>810.0</ele><time>2026-03-31T10:09:06Z</time></trkpt><trkpt lat="45.14737664200118" lon="4.08362700666398"><ele>810.0</ele><time>2026-03-31T10:09:07Z</time></trkpt><trkpt lat="45.14726644588719" lon="4.083642657580176"><ele>810.0</ele><time>2026-03-31T10:09:08Z</time></trkpt><trkpt lat="45.14716285943972" lon="4.083674722180533"><ele>810.0</ele><time>2026-03-31T10:09:09Z</time></trkpt><trkpt lat="45.1470649100656" lon="4.083713740690515"><ele>808.8</ele><time>2026-03-31T10:09:10Z</time></trkpt><trkpt lat="45.14697245109922" lon="4.083749267596731"><ele>807.6</ele><time>2026-03-31T10:09:11Z</time></trkpt><trkpt lat="45.14687505577186" lon="4.083772125854322"><ele>806.4000000000001</ele><time>2026-03-31T10:09:12Z</time></trkpt><trkpt lat="45.14677886483004" lon="4.0837917124017205"><ele>805.2</ele><time>2026-03-31T10:09:13Z</time></trkpt><trkpt lat="45.14667534807978" lon="4.083823208077674"><ele>804.0</ele><time>2026-03-31T10:09:14Z</time></trkpt><trkpt lat="45.14656530644719" lon="4.083860833921537"><ele>803.75</ele><time>2026-03-31T10:09:15Z</time></trkpt><trkpt lat="45.146450017200294" lon="4.083894917443465"><ele>803.5</ele><time>2026-03-31T10:09:16Z</time></trkpt><trkpt lat="45.14633015130807" lon="4.0839287850805475"><ele>803.25</ele><time>2026-03-31T10:09:17Z</time></trkpt><trkpt lat="45.1462050665967" lon="4.083968516188603"><ele>803.0</ele><time>2026-03-31T10:09:18Z</time></trkpt><trkpt lat="45.146083074486654" lon="4.084007674571072"><ele>803.0</ele><time>2026-03-31T10:09:19Z</time></trkpt><trkpt lat="45.14596836502635" lon="4.084043104290334"><ele>803.0</ele><time>2026-03-31T10:09:20Z</time></trkpt><trkpt lat="45.14585871968567" lon="4.084079836936577"><ele>803.0</ele><time>2026-03-31T10:09:21Z</time></trkpt><trkpt lat="45.14575047768953" lon="4.084111407783279"><ele>803.0</ele><time>2026-03-31T10:09:22Z</time></trkpt><trkpt lat="45.145667402610265" lon="4.084217367233494"><ele>802.8</ele><time>2026-03-31T10:09:23Z</time></trkpt><trkpt lat="45.14558797191159" lon="4.084313089641253"><ele>802.5999999999999</ele><time>2026-03-31T10:09:24Z</time></trkpt><trkpt lat="45.1454992579713" lon="4.084409969122861"><ele>802.4000000000001</ele><time>2026-03-31T10:09:25Z</time></trkpt><trkpt lat="45.145387764740015" lon="4.084451595184262"><ele>802.2</ele><time>2026-03-31T10:09:26Z</time></trkpt><trkpt lat="45.14527989143495" lon="4.084515204725018"><ele>802.0</ele><time>2026-03-31T10:09:27Z</time></trkpt><trkpt lat="45.145165703110536" lon="4.084566454804162"><ele>802.0</ele><time>2026-03-31T10:09:28Z</time></trkpt><trkpt lat="45.14505116017445" lon="4.084572420598939"><ele>802.0</ele><time>2026-03-31T10:09:29Z</time></trkpt><trkpt lat="45.144924305184716" lon="4.0845835213599315"><ele>802.0</ele><time>2026-03-31T10:09:29.999Z</time></trkpt><trkpt lat="45.14479425047071" lon="4.084657234219731"><ele>802.0</ele><time>2026-03-31T10:09:30.999Z</time></trkpt><trkpt lat="45.14465857590888" lon="4.0846950040017616"><ele>801.5</ele><time>2026-03-31T10:09:31.999Z</time></trkpt><trkpt lat="45.144538011888415" lon="4.0847497331971585"><ele>801.0</ele><time>2026-03-31T10:09:32.999Z</time></trkpt><trkpt lat="45.14441740266791" lon="4.08480555893688"><ele>800.5</ele><time>2026-03-31T10:09:33.999Z</time></trkpt><trkpt lat="45.14430006067858" lon="4.084861006000504"><ele>800.0</ele><time>2026-03-31T10:09:34.999Z</time></trkpt><trkpt lat="45.14418358385249" lon="4.084909028379015"><ele>799.4</ele><time>2026-03-31T10:09:35.999Z</time></trkpt><trkpt lat="45.14407390578741" lon="4.084949123788429"><ele>798.8</ele><time>2026-03-31T10:09:36.999Z</time></trkpt><trkpt lat="45.14397468281398" lon="4.085002042757411"><ele>798.2</ele><time>2026-03-31T10:09:37.999Z</time></trkpt><trkpt lat="45.143882648934635" lon="4.085024980666605"><ele>797.6</ele><time>2026-03-31T10:09:38.999Z</time></trkpt><trkpt lat="45.143779712460244" lon="4.085016496664334"><ele>797.0</ele><time>2026-03-31T10:09:39.999Z</time></trkpt><trkpt lat="45.14366130740496" lon="4.085031823091572"><ele>796.0</ele><time>2026-03-31T10:09:40.999Z</time></trkpt><trkpt lat="45.143533991464835" lon="4.085045565774992"><ele>795.0</ele><time>2026-03-31T10:09:41.999Z</time></trkpt><trkpt lat="45.14342090662058" lon="4.085047681102562"><ele>794.0</ele><time>2026-03-31T10:09:42.999Z</time></trkpt><trkpt lat="45.143311818758264" lon="4.085042589020701"><ele>793.0</ele><time>2026-03-31T10:09:43.999Z</time></trkpt><trkpt lat="45.1432024326705" lon="4.08502942754949"><ele>791.6666666666666</ele><time>2026-03-31T10:09:44.999Z</time></trkpt><trkpt lat="45.14309846409419" lon="4.085005974747552"><ele>790.3333333333333</ele><time>2026-03-31T10:09:45.999Z</time></trkpt><trkpt lat="45.14300488952436" lon="4.084977988331602"><ele>789.0</ele><time>2026-03-31T10:09:46.999Z</time></trkpt><trkpt lat="45.14291562888841" lon="4.084950287154156"><ele>787.6666666666667</ele><time>2026-03-31T10:09:47.999Z</time></trkpt><trkpt lat="45.14283977270954" lon="4.084925022027529"><ele>786.3333333333334</ele><time>2026-03-31T10:09:48.999Z</time></trkpt><trkpt lat="45.142769996246535" lon="4.08490017615738"><ele>785.0</ele><time>2026-03-31T10:09:49.999Z</time></trkpt><trkpt lat="45.14268196770664" lon="4.084861422810467"><ele>784.1666666666667</ele><time>2026-03-31T10:09:51.999Z</time></trkpt><trkpt lat="45.14269611798312" lon="4.084963121497738"><ele>783.3333333333334</ele><time>2026-03-31T10:13:20Z</time></trkpt><trkpt lat="45.14271869394939" lon="4.085074688380032"><ele>782.5</ele><time>2026-03-31T10:13:30Z</time></trkpt><trkpt lat="45.14272446461536" lon="4.085204601144175"><ele>781.6666666666667</ele><time>2026-03-31T10:13:32Z</time></trkpt><trkpt lat="45.1427377597116" lon="4.085317968477531"><ele>780.8333333333334</ele><time>2026-03-31T10:13:34Z</time></trkpt><trkpt lat="45.1427716743726" lon="4.085412941640662"><ele>780.0</ele><time>2026-03-31T10:13:36Z</time></trkpt><trkpt lat="45.14281369458872" lon="4.085492865981063"><ele>780.0</ele><time>2026-03-31T10:13:38Z</time></trkpt><trkpt lat="45.14285560596224" lon="4.085617422865972"><ele>780.0</ele><time>2026-03-31T10:13:40Z</time></trkpt><trkpt lat="45.1428842376701" lon="4.085783035757068"><ele>780.0</ele><time>2026-03-31T10:13:42Z</time></trkpt><trkpt lat="45.14289200306419" lon="4.085886682703842"><ele>780.0</ele><time>2026-03-31T10:13:43Z</time></trkpt><trkpt lat="45.14293420422609" lon="4.086053424520747"><ele>780.0</ele><time>2026-03-31T10:13:45Z</time></trkpt><trkpt lat="45.14294512669826" lon="4.086162607891121"><ele>780.0</ele><time>2026-03-31T10:13:46Z</time></trkpt><trkpt lat="45.14297543865907" lon="4.086241346650288"><ele>780.0</ele><time>2026-03-31T10:13:47Z</time></trkpt><trkpt lat="45.14299978088704" lon="4.086328017596324"><ele>780.0</ele><time>2026-03-31T10:13:48Z</time></trkpt><trkpt lat="45.14300929185178" lon="4.086434107816802"><ele>780.0</ele><time>2026-03-31T10:13:49Z</time></trkpt><trkpt lat="45.143034915460426" lon="4.08652900765104"><ele>780.0</ele><time>2026-03-31T10:13:50Z</time></trkpt><trkpt lat="45.14306415876295" lon="4.086644617489133"><ele>780.0</ele><time>2026-03-31T10:13:52Z</time></trkpt><trkpt lat="45.14313368389929" lon="4.086685654521801"><ele>780.0</ele><time>2026-03-31T10:13:53.999Z</time></trkpt><trkpt lat="45.14321985113199" lon="4.086722161038334"><ele>780.6</ele><time>2026-03-31T10:13:55.999Z</time></trkpt><trkpt lat="45.14331489446188" lon="4.086797413908702"><ele>781.2</ele><time>2026-03-31T10:13:57.999Z</time></trkpt><trkpt lat="45.143331052529334" lon="4.0869424334621245"><ele>781.8</ele><time>2026-03-31T10:13:59.999Z</time></trkpt><trkpt lat="45.14328259149607" lon="4.0870417292201715"><ele>782.4</ele><time>2026-03-31T10:14:01.999Z</time></trkpt><trkpt lat="45.14325916468615" lon="4.087167663004666"><ele>783.0</ele><time>2026-03-31T10:14:03.999Z</time></trkpt><trkpt lat="45.14334507542946" lon="4.0872203162769"><ele>783.0</ele><time>2026-03-31T10:14:05.999Z</time></trkpt><trkpt lat="45.14339705405058" lon="4.087296662341747"><ele>783.0</ele><time>2026-03-31T10:14:06.999Z</time></trkpt><trkpt lat="45.14345842430964" lon="4.08734591993689"><ele>783.0</ele><time>2026-03-31T10:14:07.999Z</time></trkpt><trkpt lat="45.14352093730582" lon="4.087381302323306"><ele>783.0</ele><time>2026-03-31T10:14:08.999Z</time></trkpt><trkpt lat="45.14358162312228" lon="4.087435088808876"><ele>783.0</ele><time>2026-03-31T10:14:09.999Z</time></trkpt><trkpt lat="45.14366591495014" lon="4.087511125849499"><ele>783.0</ele><time>2026-03-31T10:14:10.999Z</time></trkpt><trkpt lat="45.14374245838226" lon="4.087628943138823"><ele>782.4</ele><time>2026-03-31T10:14:11.999Z</time></trkpt><trkpt lat="45.14381853580145" lon="4.087753877207561"><ele>781.8</ele><time>2026-03-31T10:14:12.999Z</time></trkpt><trkpt lat="45.14390656383182" lon="4.087845180782554"><ele>781.2</ele><time>2026-03-31T10:14:13.999Z</time></trkpt><trkpt lat="45.14397864868293" lon="4.087943327011098"><ele>780.6</ele><time>2026-03-31T10:14:14.999Z</time></trkpt><trkpt lat="45.14404112822387" lon="4.088006758027669"><ele>780.0</ele><time>2026-03-31T10:14:15.999Z</time></trkpt><trkpt lat="45.14412836415709" lon="4.088072812025309"><ele>779.4</ele><time>2026-03-31T10:14:16.999Z</time></trkpt><trkpt lat="45.1442335645276" lon="4.088156575345284"><ele>778.8</ele><time>2026-03-31T10:14:17.999Z</time></trkpt><trkpt lat="45.14432247798222" lon="4.08822813700042"><ele>778.2</ele><time>2026-03-31T10:14:18.999Z</time></trkpt><trkpt lat="45.14440286241002" lon="4.088278889007867"><ele>777.6</ele><time>2026-03-31T10:14:19.999Z</time></trkpt><trkpt lat="45.1444714774143" lon="4.088335280829555"><ele>777.0</ele><time>2026-03-31T10:14:20.999Z</time></trkpt><trkpt lat="45.144537237959504" lon="4.088389974127752"><ele>777.0</ele><time>2026-03-31T10:14:21.999Z</time></trkpt><trkpt lat="45.14460740629033" lon="4.08844873728876"><ele>777.0</ele><time>2026-03-31T10:14:22.999Z</time></trkpt><trkpt lat="45.14467869174929" lon="4.088542034320389"><ele>777.0</ele><time>2026-03-31T10:14:23.999Z</time></trkpt><trkpt lat="45.14476107549087" lon="4.088637749716634"><ele>777.0</ele><time>2026-03-31T10:14:24.999Z</time></trkpt><trkpt lat="45.1448335927851" lon="4.08875131878439"><ele>777.0</ele><time>2026-03-31T10:14:25.999Z</time></trkpt><trkpt lat="45.14488797074114" lon="4.088876386360845"><ele>776.0</ele><time>2026-03-31T10:14:26.999Z</time></trkpt><trkpt lat="45.14492723830441" lon="4.088985006295284"><ele>775.0</ele><time>2026-03-31T10:14:27.999Z</time></trkpt><trkpt lat="45.144957805870426" lon="4.089081999338328"><ele>774.0</ele><time>2026-03-31T10:14:29.999Z</time></trkpt><trkpt lat="45.144974587616176" lon="4.089178140454097"><ele>773.0</ele><time>2026-03-31T10:14:52.998Z</time></trkpt><trkpt lat="45.145043014491776" lon="4.089321034537623"><ele>772.0</ele><time>2026-03-31T10:14:59.998Z</time></trkpt><trkpt lat="45.14504988592945" lon="4.089444374504091"><ele>771.0</ele><time>2026-03-31T10:15:00.998Z</time></trkpt><trkpt lat="45.1450351400205" lon="4.089563398898261"><ele>771.0</ele><time>2026-03-31T10:15:01.998Z</time></trkpt><trkpt lat="45.14498909546908" lon="4.089695366893852"><ele>771.0</ele><time>2026-03-31T10:15:03.998Z</time></trkpt><trkpt lat="45.14491305473301" lon="4.089781991500537"><ele>771.0</ele><time>2026-03-31T10:15:05.998Z</time></trkpt><trkpt lat="45.14485397253905" lon="4.089827640887364"><ele>771.0</ele><time>2026-03-31T10:15:06.998Z</time></trkpt><trkpt lat="45.144795155659224" lon="4.089860693945261"><ele>771.0</ele><time>2026-03-31T10:15:07.998Z</time></trkpt><trkpt lat="45.144659104198276" lon="4.089875741303796"><ele>773.5999999999999</ele><time>2026-03-31T10:15:09.998Z</time></trkpt><trkpt lat="45.14459057259305" lon="4.089998054454563"><ele>776.2</ele><time>2026-03-31T10:15:11.998Z</time></trkpt><trkpt lat="45.14461042083316" lon="4.0900988864557615"><ele>778.8</ele><time>2026-03-31T10:15:12.998Z</time></trkpt><trkpt lat="45.14468225771865" lon="4.090185069825314"><ele>781.4000000000001</ele><time>2026-03-31T10:15:13.998Z</time></trkpt><trkpt lat="45.14474637275148" lon="4.090273379732905"><ele>784.0</ele><time>2026-03-31T10:15:15.998Z</time></trkpt><trkpt lat="45.14481338954047" lon="4.090385584755377"><ele>784.8000000000001</ele><time>2026-03-31T10:15:18Z</time></trkpt><trkpt lat="45.144898298807114" lon="4.090503689544256"><ele>785.6</ele><time>2026-03-31T10:15:20Z</time></trkpt><trkpt lat="45.144944063027836" lon="4.090594290935153"><ele>786.4</ele><time>2026-03-31T10:15:21Z</time></trkpt><trkpt lat="45.14499553536064" lon="4.090685167110886"><ele>787.2</ele><time>2026-03-31T10:15:22Z</time></trkpt><trkpt lat="45.14505454527891" lon="4.0907918404777766"><ele>788.0</ele><time>2026-03-31T10:15:23Z</time></trkpt><trkpt lat="45.14513694114987" lon="4.090922253869714"><ele>788.0</ele><time>2026-03-31T10:15:24Z</time></trkpt><trkpt lat="45.14523056100057" lon="4.09106608639565"><ele>788.0</ele><time>2026-03-31T10:15:25Z</time></trkpt><trkpt lat="45.145295131555706" lon="4.091203842083774"><ele>788.0</ele><time>2026-03-31T10:15:26Z</time></trkpt><trkpt lat="45.14532594426337" lon="4.091308422022961"><ele>788.0</ele><time>2026-03-31T10:15:27Z</time></trkpt><trkpt lat="45.14533979200376" lon="4.091448911264077"><ele>788.0</ele><time>2026-03-31T10:15:29Z</time></trkpt><trkpt lat="45.14532545498371" lon="4.0916043344869495"><ele>788.5999999999999</ele><time>2026-03-31T10:15:30Z</time></trkpt><trkpt lat="45.14528002724136" lon="4.09175212557316"><ele>789.1999999999999</ele><time>2026-03-31T10:15:31Z</time></trkpt><trkpt lat="45.14524183690579" lon="4.091880333596713"><ele>789.8</ele><time>2026-03-31T10:15:32Z</time></trkpt><trkpt lat="45.145202739327665" lon="4.092014200254723"><ele>790.4</ele><time>2026-03-31T10:15:33Z</time></trkpt><trkpt lat="45.145141582970716" lon="4.0921600868291295"><ele>791.0</ele><time>2026-03-31T10:15:34Z</time></trkpt><trkpt lat="45.14509268910287" lon="4.092314764760156"><ele>790.5</ele><time>2026-03-31T10:15:35Z</time></trkpt><trkpt lat="45.145049186091256" lon="4.092471340142646"><ele>790.0</ele><time>2026-03-31T10:15:36Z</time></trkpt><trkpt lat="45.14504278930729" lon="4.092651890987683"><ele>789.5</ele><time>2026-03-31T10:15:37Z</time></trkpt><trkpt lat="45.1450406403031" lon="4.0928343419546005"><ele>789.0</ele><time>2026-03-31T10:15:38Z</time></trkpt><trkpt lat="45.14504620033674" lon="4.093021725906268"><ele>789.0</ele><time>2026-03-31T10:15:39Z</time></trkpt><trkpt lat="45.145042072679324" lon="4.093188776269142"><ele>789.0</ele><time>2026-03-31T10:15:40Z</time></trkpt><trkpt lat="45.14504641022945" lon="4.0933620947264355"><ele>789.0</ele><time>2026-03-31T10:15:41Z</time></trkpt><trkpt lat="45.145050315306" lon="4.093518132629121"><ele>789.0</ele><time>2026-03-31T10:15:42Z</time></trkpt><trkpt lat="45.14506979690552" lon="4.09368823143253"><ele>790.5</ele><time>2026-03-31T10:15:43Z</time></trkpt><trkpt lat="45.14506285093876" lon="4.093892419287507"><ele>792.0</ele><time>2026-03-31T10:15:44Z</time></trkpt><trkpt lat="45.14504967371125" lon="4.0941070909256245"><ele>793.5</ele><time>2026-03-31T10:15:45Z</time></trkpt><trkpt lat="45.14499173886833" lon="4.094276734974361"><ele>795.0</ele><time>2026-03-31T10:15:46Z</time></trkpt><trkpt lat="45.14494827277755" lon="4.094440895770106"><ele>796.0</ele><time>2026-03-31T10:15:47Z</time></trkpt><trkpt lat="45.14490896590269" lon="4.0946307580020465"><ele>797.0</ele><time>2026-03-31T10:15:48Z</time></trkpt><trkpt lat="45.14485110487651" lon="4.0948318852624785"><ele>798.0</ele><time>2026-03-31T10:15:49Z</time></trkpt><trkpt lat="45.14480614043362" lon="4.094999886439957"><ele>799.0</ele><time>2026-03-31T10:15:50Z</time></trkpt><trkpt lat="45.14477097763392" lon="4.095167971078481"><ele>800.0</ele><time>2026-03-31T10:15:51Z</time></trkpt><trkpt lat="45.14474480107833" lon="4.095320790380199"><ele>801.0</ele><time>2026-03-31T10:15:52Z</time></trkpt><trkpt lat="45.144715739158464" lon="4.095461194159737"><ele>802.0</ele><time>2026-03-31T10:15:53Z</time></trkpt><trkpt lat="45.14469113880021" lon="4.095590089653597"><ele>803.0</ele><time>2026-03-31T10:15:54Z</time></trkpt><trkpt lat="45.14466696079232" lon="4.095717805774843"><ele>804.0</ele><time>2026-03-31T10:15:55Z</time></trkpt><trkpt lat="45.14463805012118" lon="4.095848574176186"><ele>804.6</ele><time>2026-03-31T10:15:56Z</time></trkpt><trkpt lat="45.144607418629455" lon="4.095993281587249"><ele>805.2</ele><time>2026-03-31T10:15:57Z</time></trkpt><trkpt lat="45.14457846574538" lon="4.096153831706918"><ele>805.8000000000001</ele><time>2026-03-31T10:15:58Z</time></trkpt><trkpt lat="45.14454990777396" lon="4.096314362925675"><ele>806.4000000000001</ele><time>2026-03-31T10:15:59Z</time></trkpt><trkpt lat="45.14450797179972" lon="4.096453141771117"><ele>807.0</ele><time>2026-03-31T10:16:00Z</time></trkpt><trkpt lat="45.14449288432974" lon="4.096586844030708"><ele>807.2</ele><time>2026-03-31T10:16:01Z</time></trkpt><trkpt lat="45.144480784273675" lon="4.096697260374607"><ele>807.4000000000001</ele><time>2026-03-31T10:16:02Z</time></trkpt><trkpt lat="45.14447036767973" lon="4.096792314585875"><ele>807.5999999999999</ele><time>2026-03-31T10:16:03Z</time></trkpt><trkpt lat="45.14445527328687" lon="4.096930053319758"><ele>807.8</ele><time>2026-03-31T10:16:05Z</time></trkpt><trkpt lat="45.1444849335648" lon="4.097072687680156"><ele>808.0</ele><time>2026-03-31T10:16:06.999Z</time></trkpt><trkpt lat="45.144454699394814" lon="4.0972332513869025"><ele>808.0</ele><time>2026-03-31T10:16:08.999Z</time></trkpt><trkpt lat="45.14443060624284" lon="4.097381821920105"><ele>808.0</ele><time>2026-03-31T10:16:10.999Z</time></trkpt><trkpt lat="45.14439973554216" lon="4.09748401363916"><ele>808.0</ele><time>2026-03-31T10:16:11.999Z</time></trkpt><trkpt lat="45.14436521044264" lon="4.097584802572157"><ele>808.0</ele><time>2026-03-31T10:16:12.999Z</time></trkpt><trkpt lat="45.14432081451024" lon="4.0976882604059055"><ele>808.0</ele><time>2026-03-31T10:16:13.999Z</time></trkpt><trkpt lat="45.144264322321256" lon="4.09782180394846"><ele>808.25</ele><time>2026-03-31T10:16:14.999Z</time></trkpt><trkpt lat="45.14420530966569" lon="4.097970822499118"><ele>808.5</ele><time>2026-03-31T10:16:15.999Z</time></trkpt><trkpt lat="45.14413290970342" lon="4.098135903827494"><ele>808.75</ele><time>2026-03-31T10:16:16.999Z</time></trkpt><trkpt lat="45.14404279045461" lon="4.098299231393161"><ele>809.0</ele><time>2026-03-31T10:16:17.999Z</time></trkpt><trkpt lat="45.14398212367875" lon="4.098481116523702"><ele>809.5</ele><time>2026-03-31T10:16:18.999Z</time></trkpt><trkpt lat="45.14391344698744" lon="4.098640372394538"><ele>810.0</ele><time>2026-03-31T10:16:19.999Z</time></trkpt><trkpt lat="45.14384474202667" lon="4.098788649518629"><ele>810.5</ele><time>2026-03-31T10:16:20.999Z</time></trkpt><trkpt lat="45.143783195595454" lon="4.098922369523845"><ele>811.0</ele><time>2026-03-31T10:16:21.999Z</time></trkpt><trkpt lat="45.143710749628205" lon="4.099040828619182"><ele>810.9999999999999</ele><time>2026-03-31T10:16:22.999Z</time></trkpt><trkpt lat="45.143678687081426" lon="4.099133830139844"><ele>811.0</ele><time>2026-03-31T10:16:23.999Z</time></trkpt><trkpt lat="45.14365568196929" lon="4.0992198422422215"><ele>811.0</ele><time>2026-03-31T10:16:24.999Z</time></trkpt><trkpt lat="45.1437101725924" lon="4.099348519895606"><ele>811.0</ele><time>2026-03-31T10:16:26.999Z</time></trkpt><trkpt lat="45.143788756453574" lon="4.099436213238929"><ele>810.9999999999999</ele><time>2026-03-31T10:16:28.999Z</time></trkpt><trkpt lat="45.1438320137008" lon="4.099523142108182"><ele>811.0</ele><time>2026-03-31T10:16:30.999Z</time></trkpt><trkpt lat="45.14388286595906" lon="4.0996099940369195"><ele>811.0</ele><time>2026-03-31T10:16:33.999Z</time></trkpt><trkpt lat="45.14401171034094" lon="4.0995105264991425"><ele>811.0</ele><time>2026-03-31T10:16:34.999Z</time></trkpt><trkpt lat="45.144082278584584" lon="4.099432011821747"><ele>811.0</ele><time>2026-03-31T10:16:35.999Z</time></trkpt><trkpt lat="45.144175067133375" lon="4.099341362780398"><ele>811.0</ele><time>2026-03-31T10:16:36.999Z</time></trkpt><trkpt lat="45.14428329842725" lon="4.099241985322441"><ele>811.0</ele><time>2026-03-31T10:16:37.999Z</time></trkpt><trkpt lat="45.14439835046864" lon="4.099136326789609"><ele>811.0</ele><time>2026-03-31T10:16:38.999Z</time></trkpt><trkpt lat="45.14451153042371" lon="4.099037368401794"><ele>811.0</ele><time>2026-03-31T10:16:39.999Z</time></trkpt><trkpt lat="45.144615746795395" lon="4.098945536769965"><ele>811.0</ele><time>2026-03-31T10:16:40.999Z</time></trkpt><trkpt lat="45.14472605757066" lon="4.098848696706043"><ele>811.0</ele><time>2026-03-31T10:16:41.999Z</time></trkpt><trkpt lat="45.144840338063226" lon="4.098754675891248"><ele>811.0</ele><time>2026-03-31T10:16:42.999Z</time></trkpt><trkpt lat="45.14494895262834" lon="4.098678391307938"><ele>811.0</ele><time>2026-03-31T10:16:43.999Z</time></trkpt><trkpt lat="45.145040870080216" lon="4.098612989648346"><ele>811.0</ele><time>2026-03-31T10:16:44.999Z</time></trkpt><trkpt lat="45.145116867602276" lon="4.098559460404166"><ele>811.0</ele><time>2026-03-31T10:16:45.999Z</time></trkpt><trkpt lat="45.14518061702183" lon="4.098497618145321"><ele>810.0</ele><time>2026-03-31T10:16:46.999Z</time></trkpt><trkpt lat="45.14523181177874" lon="4.098436671560218"><ele>809.0</ele><time>2026-03-31T10:16:47.999Z</time></trkpt><trkpt lat="45.14530587686896" lon="4.098301395188208"><ele>808.0</ele><time>2026-03-31T10:16:49.999Z</time></trkpt><trkpt lat="45.14535457466016" lon="4.098147897423968"><ele>807.0</ele><time>2026-03-31T10:16:51.999Z</time></trkpt><trkpt lat="45.14540859607112" lon="4.098037202247704"><ele>806.0</ele><time>2026-03-31T10:16:53.999Z</time></trkpt><trkpt lat="45.14549867880414" lon="4.0981365860983425"><ele>806.0</ele><time>2026-03-31T10:16:55.999Z</time></trkpt><trkpt lat="45.1455820751666" lon="4.098196859599076"><ele>806.0</ele><time>2026-03-31T10:16:56.999Z</time></trkpt><trkpt lat="45.14566407315628" lon="4.098257654763447"><ele>806.0</ele><time>2026-03-31T10:16:57.999Z</time></trkpt><trkpt lat="45.145749982379506" lon="4.098306182935817"><ele>806.0</ele><time>2026-03-31T10:16:58.999Z</time></trkpt><trkpt lat="45.14583168737164" lon="4.098358378757283"><ele>806.0</ele><time>2026-03-31T10:16:59.998Z</time></trkpt><trkpt lat="45.14590582473921" lon="4.098431672423653"><ele>804.5999999999999</ele><time>2026-03-31T10:17:00.998Z</time></trkpt><trkpt lat="45.14595786963508" lon="4.098524033447566"><ele>803.2</ele><time>2026-03-31T10:17:01.998Z</time></trkpt><trkpt lat="45.145978450261694" lon="4.098632539991654"><ele>801.8</ele><time>2026-03-31T10:17:02.998Z</time></trkpt><trkpt lat="45.14595043944297" lon="4.098751304607832"><ele>800.4000000000001</ele><time>2026-03-31T10:17:03.998Z</time></trkpt><trkpt lat="45.14595452755697" lon="4.098871074911696"><ele>799.0</ele><time>2026-03-31T10:17:04.998Z</time></trkpt><trkpt lat="45.14600371626076" lon="4.099031101182317"><ele>799.0</ele><time>2026-03-31T10:17:06.998Z</time></trkpt><trkpt lat="45.146070966053486" lon="4.099083576026637"><ele>799.0</ele><time>2026-03-31T10:17:07.998Z</time></trkpt><trkpt lat="45.14616088357838" lon="4.099090784163615"><ele>799.0</ele><time>2026-03-31T10:17:08.998Z</time></trkpt><trkpt lat="45.14626054993612" lon="4.09905235929917"><ele>799.0</ele><time>2026-03-31T10:17:09.998Z</time></trkpt><trkpt lat="45.14636279019258" lon="4.098970657406379"><ele>799.0</ele><time>2026-03-31T10:17:10.998Z</time></trkpt><trkpt lat="45.14646746223956" lon="4.098813236217929"><ele>798.25</ele><time>2026-03-31T10:17:11.998Z</time></trkpt><trkpt lat="45.14658153388835" lon="4.09867278753345"><ele>797.5</ele><time>2026-03-31T10:17:12.998Z</time></trkpt><trkpt lat="45.14670806037475" lon="4.0985713180505785"><ele>796.75</ele><time>2026-03-31T10:17:13.998Z</time></trkpt><trkpt lat="45.14682398303414" lon="4.098522171196904"><ele>796.0</ele><time>2026-03-31T10:17:14.998Z</time></trkpt><trkpt lat="45.14694838077503" lon="4.098498616969119"><ele>796.0</ele><time>2026-03-31T10:17:15.998Z</time></trkpt><trkpt lat="45.14705506646982" lon="4.098508692171415"><ele>796.0</ele><time>2026-03-31T10:17:16.998Z</time></trkpt><trkpt lat="45.1471606212678" lon="4.098532799206291"><ele>796.0</ele><time>2026-03-31T10:17:17.998Z</time></trkpt><trkpt lat="45.14725190706096" lon="4.0985789096634795"><ele>796.0</ele><time>2026-03-31T10:17:18.998Z</time></trkpt><trkpt lat="45.14732620288625" lon="4.0986658645993295"><ele>796.0</ele><time>2026-03-31T10:17:19.998Z</time></trkpt><trkpt lat="45.147360904623746" lon="4.0987831854637555"><ele>795.9999999999999</ele><time>2026-03-31T10:17:20.998Z</time></trkpt><trkpt lat="45.147358037703235" lon="4.09889969125189"><ele>796.0</ele><time>2026-03-31T10:17:21.998Z</time></trkpt><trkpt lat="45.147342211872825" lon="4.099007773614857"><ele>796.0</ele><time>2026-03-31T10:17:22.998Z</time></trkpt><trkpt lat="45.14732071058996" lon="4.099118210997437"><ele>796.0</ele><time>2026-03-31T10:17:24Z</time></trkpt><trkpt lat="45.14731534615902" lon="4.099230335937813"><ele>795.9999999999999</ele><time>2026-03-31T10:17:25Z</time></trkpt><trkpt lat="45.14734125741814" lon="4.099336523868764"><ele>796.0</ele><time>2026-03-31T10:17:26Z</time></trkpt><trkpt lat="45.14739567579601" lon="4.099424640299469"><ele>798.5999999999999</ele><time>2026-03-31T10:17:27Z</time></trkpt><trkpt lat="45.14747443049766" lon="4.09949224962593"><ele>801.2</ele><time>2026-03-31T10:17:28Z</time></trkpt><trkpt lat="45.14755703096576" lon="4.099556854948613"><ele>803.8</ele><time>2026-03-31T10:17:29Z</time></trkpt><trkpt lat="45.147657489867726" lon="4.099628188581778"><ele>806.4000000000001</ele><time>2026-03-31T10:17:30Z</time></trkpt><trkpt lat="45.14777938165354" lon="4.099691516936393"><ele>809.0</ele><time>2026-03-31T10:17:31Z</time></trkpt><trkpt lat="45.14791373843041" lon="4.09975520281941"><ele>809.0</ele><time>2026-03-31T10:17:32Z</time></trkpt><trkpt lat="45.148023742451876" lon="4.099807411641"><ele>809.0</ele><time>2026-03-31T10:17:33Z</time></trkpt><trkpt lat="45.14812720743347" lon="4.099879196184079"><ele>809.0</ele><time>2026-03-31T10:17:34Z</time></trkpt><trkpt lat="45.148220483589455" lon="4.099971374183377"><ele>809.0</ele><time>2026-03-31T10:17:35Z</time></trkpt><trkpt lat="45.148293741785885" lon="4.100074336440401"><ele>809.0</ele><time>2026-03-31T10:17:36Z</time></trkpt><trkpt lat="45.148353712719036" lon="4.100181210871979"><ele>811.4000000000001</ele><time>2026-03-31T10:17:37Z</time></trkpt><trkpt lat="45.14836073306169" lon="4.100324401666676"><ele>813.8</ele><time>2026-03-31T10:17:38Z</time></trkpt><trkpt lat="45.148367407753106" lon="4.1004934715481385"><ele>816.2</ele><time>2026-03-31T10:17:39Z</time></trkpt><trkpt lat="45.14838183841218" lon="4.100640502215671"><ele>818.5999999999999</ele><time>2026-03-31T10:17:40Z</time></trkpt><trkpt lat="45.14838972306335" lon="4.100756712947937"><ele>821.0</ele><time>2026-03-31T10:17:41Z</time></trkpt><trkpt lat="45.148450246045314" lon="4.100893127296774"><ele>821.0000000000001</ele><time>2026-03-31T10:17:43Z</time></trkpt><trkpt lat="45.1485243582211" lon="4.1009241715360885"><ele>821.0</ele><time>2026-03-31T10:17:45Z</time></trkpt><trkpt lat="45.14858556887778" lon="4.100956104917563"><ele>821.0</ele><time>2026-03-31T10:17:48Z</time></trkpt><trkpt lat="45.148653014798114" lon="4.10095598632554"><ele>821.0</ele><time>2026-03-31T10:18:09Z</time></trkpt><trkpt lat="45.148707791979966" lon="4.100851211426852"><ele>821.0000000000001</ele><time>2026-03-31T10:18:11Z</time></trkpt><trkpt lat="45.14872684311685" lon="4.100762708667333"><ele>821.0</ele><time>2026-03-31T10:18:12Z</time></trkpt><trkpt lat="45.148759149167795" lon="4.10065469025863"><ele>821.0</ele><time>2026-03-31T10:18:13Z</time></trkpt><trkpt lat="45.148808258108446" lon="4.1005172306212865"><ele>821.0</ele><time>2026-03-31T10:18:14Z</time></trkpt><trkpt lat="45.14887287840893" lon="4.10035658273598"><ele>821.0</ele><time>2026-03-31T10:18:15Z</time></trkpt><trkpt lat="45.14894912247896" lon="4.100191311754027"><ele>821.0</ele><time>2026-03-31T10:18:15.999Z</time></trkpt><trkpt lat="45.149041078698616" lon="4.100059309891565"><ele>820.5</ele><time>2026-03-31T10:18:16.999Z</time></trkpt><trkpt lat="45.149134850286565" lon="4.099933454067907"><ele>820.0</ele><time>2026-03-31T10:18:17.999Z</time></trkpt><trkpt lat="45.14923760836477" lon="4.099802166943366"><ele>819.5</ele><time>2026-03-31T10:18:18.999Z</time></trkpt><trkpt lat="45.1493500671011" lon="4.099662061544172"><ele>819.0</ele><time>2026-03-31T10:18:19.999Z</time></trkpt><trkpt lat="45.149457848927895" lon="4.099526083891824"><ele>819.0</ele><time>2026-03-31T10:18:20.999Z</time></trkpt><trkpt lat="45.14955348334137" lon="4.099390267021944"><ele>819.0</ele><time>2026-03-31T10:18:21.999Z</time></trkpt><trkpt lat="45.14964192287349" lon="4.099230727168593"><ele>819.0</ele><time>2026-03-31T10:18:22.999Z</time></trkpt><trkpt lat="45.1497361720547" lon="4.099052396210959"><ele>819.0</ele><time>2026-03-31T10:18:23.999Z</time></trkpt><trkpt lat="45.14982033487279" lon="4.098855987301703"><ele>820.0</ele><time>2026-03-31T10:18:24.999Z</time></trkpt><trkpt lat="45.14990522434824" lon="4.098654036397828"><ele>821.0</ele><time>2026-03-31T10:18:25.999Z</time></trkpt><trkpt lat="45.14998278772893" lon="4.0984525560288585"><ele>822.0</ele><time>2026-03-31T10:18:26.999Z</time></trkpt><trkpt lat="45.150068749881115" lon="4.098242740992169"><ele>818.0</ele><time>2026-03-31T10:18:27.999Z</time></trkpt><trkpt lat="45.15016154671313" lon="4.098030322598735"><ele>814.0</ele><time>2026-03-31T10:18:28.999Z</time></trkpt><trkpt lat="45.1502672886024" lon="4.097838708296609"><ele>810.0</ele><time>2026-03-31T10:18:29.999Z</time></trkpt><trkpt lat="45.15038594807449" lon="4.097666337676438"><ele>810.0</ele><time>2026-03-31T10:18:30.999Z</time></trkpt><trkpt lat="45.15050963172519" lon="4.097503497783813"><ele>810.0</ele><time>2026-03-31T10:18:31.999Z</time></trkpt><trkpt lat="45.15063905871224" lon="4.097333727927143"><ele>810.0</ele><time>2026-03-31T10:18:32.999Z</time></trkpt><trkpt lat="45.15075499549058" lon="4.097138088149215"><ele>811.6666666666667</ele><time>2026-03-31T10:18:33.999Z</time></trkpt><trkpt lat="45.150862276242904" lon="4.096945057098611"><ele>813.3333333333334</ele><time>2026-03-31T10:18:34.999Z</time></trkpt><trkpt lat="45.15095578684786" lon="4.096732881402539"><ele>815.0</ele><time>2026-03-31T10:18:35.999Z</time></trkpt><trkpt lat="45.151045846792684" lon="4.09651017294037"><ele>810.3333333333334</ele><time>2026-03-31T10:18:36.999Z</time></trkpt><trkpt lat="45.15113117848025" lon="4.096303471612116"><ele>805.6666666666667</ele><time>2026-03-31T10:18:37.999Z</time></trkpt><trkpt lat="45.15122532241079" lon="4.096105061227431"><ele>801.0</ele><time>2026-03-31T10:18:38.999Z</time></trkpt><trkpt lat="45.15133086520393" lon="4.0959372566502665"><ele>801.0</ele><time>2026-03-31T10:18:39.999Z</time></trkpt><trkpt lat="45.15143664248903" lon="4.095798201138829"><ele>801.0</ele><time>2026-03-31T10:18:40.999Z</time></trkpt><trkpt lat="45.151547673742314" lon="4.095686899068603"><ele>801.0</ele><time>2026-03-31T10:18:41.999Z</time></trkpt><trkpt lat="45.15165427722223" lon="4.095580972579516"><ele>801.0</ele><time>2026-03-31T10:18:42.999Z</time></trkpt><trkpt lat="45.15175837660054" lon="4.095480776422751"><ele>801.8</ele><time>2026-03-31T10:18:43.999Z</time></trkpt><trkpt lat="45.151853416279565" lon="4.095389378081162"><ele>802.5999999999999</ele><time>2026-03-31T10:18:44.999Z</time></trkpt><trkpt lat="45.15193854821955" lon="4.0953017103824685"><ele>803.4</ele><time>2026-03-31T10:18:45.999Z</time></trkpt><trkpt lat="45.15201898062751" lon="4.095222225674431"><ele>804.2</ele><time>2026-03-31T10:18:46.999Z</time></trkpt><trkpt lat="45.15209153673235" lon="4.095128713296511"><ele>805.0</ele><time>2026-03-31T10:18:47.999Z</time></trkpt><trkpt lat="45.15215534322667" lon="4.095075007177161"><ele>805.0</ele><time>2026-03-31T10:18:48.999Z</time></trkpt><trkpt lat="45.15230148444304" lon="4.095127814330338"><ele>805.0</ele><time>2026-03-31T10:18:50.999Z</time></trkpt><trkpt lat="45.152402041149614" lon="4.095167801542414"><ele>805.0</ele><time>2026-03-31T10:18:51.999Z</time></trkpt><trkpt lat="45.152503548938974" lon="4.095239550920083"><ele>805.0</ele><time>2026-03-31T10:18:52.999Z</time></trkpt><trkpt lat="45.152602298209935" lon="4.0952970137190565"><ele>805.0</ele><time>2026-03-31T10:18:53.999Z</time></trkpt><trkpt lat="45.152700359599564" lon="4.095335341763203"><ele>805.0</ele><time>2026-03-31T10:18:54.999Z</time></trkpt><trkpt lat="45.1528258979227" lon="4.095344445427788"><ele>805.0</ele><time>2026-03-31T10:18:55.999Z</time></trkpt><trkpt lat="45.152977428080774" lon="4.09531357200026"><ele>805.0</ele><time>2026-03-31T10:18:56.999Z</time></trkpt><trkpt lat="45.15312388538994" lon="4.095273162991756"><ele>803.75</ele><time>2026-03-31T10:18:57.999Z</time></trkpt><trkpt lat="45.15324900623013" lon="4.095210819560596"><ele>802.5</ele><time>2026-03-31T10:18:58.999Z</time></trkpt><trkpt lat="45.15339373586941" lon="4.095202728173641"><ele>801.25</ele><time>2026-03-31T10:18:59.999Z</time></trkpt><trkpt lat="45.15355275827328" lon="4.095233799804636"><ele>800.0</ele><time>2026-03-31T10:19:00.999Z</time></trkpt><trkpt lat="45.15370993342312" lon="4.09529853951562"><ele>800.0</ele><time>2026-03-31T10:19:01.999Z</time></trkpt><trkpt lat="45.15384754516672" lon="4.095350134419373"><ele>800.0</ele><time>2026-03-31T10:19:02.999Z</time></trkpt><trkpt lat="45.153966236075675" lon="4.0954019763936484"><ele>800.0</ele><time>2026-03-31T10:19:03.999Z</time></trkpt><trkpt lat="45.15409025369186" lon="4.095445134849658"><ele>800.0</ele><time>2026-03-31T10:19:04.999Z</time></trkpt><trkpt lat="45.154219014102765" lon="4.095463188214195"><ele>799.5</ele><time>2026-03-31T10:19:05.999Z</time></trkpt><trkpt lat="45.154346857055366" lon="4.0954337184333145"><ele>799.0</ele><time>2026-03-31T10:19:06.999Z</time></trkpt><trkpt lat="45.15447422349704" lon="4.095337248217218"><ele>798.5</ele><time>2026-03-31T10:19:07.999Z</time></trkpt><trkpt lat="45.15456913988989" lon="4.095210360486884"><ele>798.0</ele><time>2026-03-31T10:19:08.999Z</time></trkpt><trkpt lat="45.15463703622188" lon="4.095068142653273"><ele>798.0</ele><time>2026-03-31T10:19:09.998Z</time></trkpt><trkpt lat="45.15468091016437" lon="4.094927005874228"><ele>798.0</ele><time>2026-03-31T10:19:10.998Z</time></trkpt><trkpt lat="45.154730368978605" lon="4.094814333583357"><ele>798.0</ele><time>2026-03-31T10:19:11.998Z</time></trkpt><trkpt lat="45.154766715283984" lon="4.094730239985594"><ele>798.0</ele><time>2026-03-31T10:19:12.998Z</time></trkpt><trkpt lat="45.1548812659315" lon="4.0947209560323845"><ele>798.0</ele><time>2026-03-31T10:19:13.998Z</time></trkpt><trkpt lat="45.15498764255093" lon="4.094723737510782"><ele>798.75</ele><time>2026-03-31T10:19:14.998Z</time></trkpt><trkpt lat="45.155099604942805" lon="4.094715293983427"><ele>799.5</ele><time>2026-03-31T10:19:15.998Z</time></trkpt><trkpt lat="45.155236155529984" lon="4.094692684347663"><ele>800.25</ele><time>2026-03-31T10:19:16.998Z</time></trkpt><trkpt lat="45.155377663853585" lon="4.09467166230223"><ele>801.0</ele><time>2026-03-31T10:19:17.998Z</time></trkpt><trkpt lat="45.15552447706817" lon="4.0946538718342875"><ele>801.0</ele><time>2026-03-31T10:19:18.998Z</time></trkpt><trkpt lat="45.15568931579364" lon="4.094628525157703"><ele>801.0</ele><time>2026-03-31T10:19:19.998Z</time></trkpt><trkpt lat="45.15585442289307" lon="4.09460318767493"><ele>801.0</ele><time>2026-03-31T10:19:20.998Z</time></trkpt><trkpt lat="45.15599685510773" lon="4.094585768657609"><ele>802.75</ele><time>2026-03-31T10:19:21.998Z</time></trkpt><trkpt lat="45.1561150782184" lon="4.0945708184148595"><ele>804.5</ele><time>2026-03-31T10:19:22.998Z</time></trkpt><trkpt lat="45.15623338256141" lon="4.094563629191155"><ele>806.25</ele><time>2026-03-31T10:19:23.998Z</time></trkpt><trkpt lat="45.156342849458596" lon="4.09455894444849"><ele>808.0</ele><time>2026-03-31T10:19:24.998Z</time></trkpt><trkpt lat="45.15645604112106" lon="4.0945551689690145"><ele>809.0</ele><time>2026-03-31T10:19:25.998Z</time></trkpt><trkpt lat="45.15658748864132" lon="4.094551617145687"><ele>810.0</ele><time>2026-03-31T10:19:26.998Z</time></trkpt><trkpt lat="45.15673194180555" lon="4.094542341377589"><ele>811.0</ele><time>2026-03-31T10:19:27.998Z</time></trkpt><trkpt lat="45.15688172685175" lon="4.094535873086283"><ele>812.0</ele><time>2026-03-31T10:19:28.998Z</time></trkpt><trkpt lat="45.15704341066077" lon="4.094526279918598"><ele>812.0</ele><time>2026-03-31T10:19:30Z</time></trkpt><trkpt lat="45.15719742333051" lon="4.094522935573275"><ele>812.0</ele><time>2026-03-31T10:19:31Z</time></trkpt><trkpt lat="45.15735138579467" lon="4.094514487493145"><ele>812.0</ele><time>2026-03-31T10:19:32Z</time></trkpt><trkpt lat="45.157496222022395" lon="4.094501434320611"><ele>813.5</ele><time>2026-03-31T10:19:33Z</time></trkpt><trkpt lat="45.157624865112666" lon="4.094490407845654"><ele>815.0</ele><time>2026-03-31T10:19:34Z</time></trkpt><trkpt lat="45.15775624597874" lon="4.094476762234676"><ele>816.5</ele><time>2026-03-31T10:19:35Z</time></trkpt><trkpt lat="45.15790130521042" lon="4.09447183075187"><ele>818.0</ele><time>2026-03-31T10:19:36Z</time></trkpt><trkpt lat="45.1580563884012" lon="4.094455906976119"><ele>819.6666666666667</ele><time>2026-03-31T10:19:37Z</time></trkpt><trkpt lat="45.158224234371" lon="4.094446884942613"><ele>821.3333333333333</ele><time>2026-03-31T10:19:38Z</time></trkpt><trkpt lat="45.158388296539286" lon="4.0944540055545895"><ele>823.0</ele><time>2026-03-31T10:19:39Z</time></trkpt><trkpt lat="45.158548652238515" lon="4.094480369339826"><ele>823.0</ele><time>2026-03-31T10:19:40Z</time></trkpt><trkpt lat="45.15871232379511" lon="4.094520399227167"><ele>823.0</ele><time>2026-03-31T10:19:41Z</time></trkpt><trkpt lat="45.15886017447418" lon="4.09457354349207"><ele>823.0</ele><time>2026-03-31T10:19:42Z</time></trkpt><trkpt lat="45.159001324821226" lon="4.094639047326471"><ele>822.8</ele><time>2026-03-31T10:19:43Z</time></trkpt><trkpt lat="45.159129984568544" lon="4.09470579299057"><ele>822.5999999999999</ele><time>2026-03-31T10:19:44Z</time></trkpt><trkpt lat="45.15924390002993" lon="4.094763318181196"><ele>822.4000000000001</ele><time>2026-03-31T10:19:45Z</time></trkpt><trkpt lat="45.15934308567958" lon="4.094810882931747"><ele>822.2</ele><time>2026-03-31T10:19:46Z</time></trkpt><trkpt lat="45.15942504594814" lon="4.094847638583277"><ele>822.0</ele><time>2026-03-31T10:19:47Z</time></trkpt><trkpt lat="45.159491050546734" lon="4.094874203389742"><ele>822.8</ele><time>2026-03-31T10:19:48Z</time></trkpt><trkpt lat="45.159561613717" lon="4.094929722801776"><ele>823.6</ele><time>2026-03-31T10:19:50Z</time></trkpt><trkpt lat="45.159636301174956" lon="4.095020843192881"><ele>824.4</ele><time>2026-03-31T10:19:52Z</time></trkpt><trkpt lat="45.15972529664116" lon="4.095037385172472"><ele>825.1999999999999</ele><time>2026-03-31T10:19:53Z</time></trkpt><trkpt lat="45.159816143427285" lon="4.095065271181284"><ele>826.0</ele><time>2026-03-31T10:19:54Z</time></trkpt><trkpt lat="45.1599118305891" lon="4.095090762316924"><ele>826.0</ele><time>2026-03-31T10:19:55Z</time></trkpt><trkpt lat="45.16001940673037" lon="4.095143417951009"><ele>826.0</ele><time>2026-03-31T10:19:56Z</time></trkpt><trkpt lat="45.16013554018739" lon="4.095213881577071"><ele>826.0</ele><time>2026-03-31T10:19:57Z</time></trkpt><trkpt lat="45.160242051981015" lon="4.095274781265681"><ele>826.0</ele><time>2026-03-31T10:19:58Z</time></trkpt><trkpt lat="45.16034130908446" lon="4.095323505790207"><ele>826.0</ele><time>2026-03-31T10:19:59Z</time></trkpt><trkpt lat="45.160436188896156" lon="4.095374206227427"><ele>826.0</ele><time>2026-03-31T10:20:00Z</time></trkpt><trkpt lat="45.160534446278135" lon="4.095425429324775"><ele>826.0</ele><time>2026-03-31T10:20:01Z</time></trkpt><trkpt lat="45.16063277379223" lon="4.095480599068806"><ele>826.0</ele><time>2026-03-31T10:20:02Z</time></trkpt><trkpt lat="45.160735751427275" lon="4.095534022679142"><ele>826.0</ele><time>2026-03-31T10:20:03Z</time></trkpt><trkpt lat="45.160852080548" lon="4.095568348362853"><ele>825.25</ele><time>2026-03-31T10:20:04Z</time></trkpt><trkpt lat="45.160982846067625" lon="4.095572881136024"><ele>824.5</ele><time>2026-03-31T10:20:05Z</time></trkpt><trkpt lat="45.161126318981175" lon="4.095531037649075"><ele>823.75</ele><time>2026-03-31T10:20:06Z</time></trkpt><trkpt lat="45.161261396803866" lon="4.095466304943674"><ele>823.0</ele><time>2026-03-31T10:20:07Z</time></trkpt><trkpt lat="45.16139594465763" lon="4.0953785075434945"><ele>823.0</ele><time>2026-03-31T10:20:08Z</time></trkpt><trkpt lat="45.16152299939593" lon="4.095297611487524"><ele>823.0</ele><time>2026-03-31T10:20:09Z</time></trkpt><trkpt lat="45.161642939297124" lon="4.095231529316412"><ele>823.0</ele><time>2026-03-31T10:20:10Z</time></trkpt><trkpt lat="45.16175609540493" lon="4.095178030496731"><ele>823.0</ele><time>2026-03-31T10:20:11Z</time></trkpt><trkpt lat="45.16185289799664" lon="4.095134555722708"><ele>822.8333333333333</ele><time>2026-03-31T10:20:12Z</time></trkpt><trkpt lat="45.16193211955772" lon="4.0950944086078325"><ele>822.6666666666666</ele><time>2026-03-31T10:20:13Z</time></trkpt><trkpt lat="45.16200524981155" lon="4.0950615610272205"><ele>822.5</ele><time>2026-03-31T10:20:14Z</time></trkpt><trkpt lat="45.16207961049785" lon="4.095033280375371"><ele>822.3333333333333</ele><time>2026-03-31T10:20:15Z</time></trkpt><trkpt lat="45.162164531065216" lon="4.095002744976762"><ele>822.1666666666666</ele><time>2026-03-31T10:20:16Z</time></trkpt><trkpt lat="45.162256614717236" lon="4.094979333289523"><ele>822.0</ele><time>2026-03-31T10:20:17Z</time></trkpt><trkpt lat="45.16234170651493" lon="4.094966281765299"><ele>821.5</ele><time>2026-03-31T10:20:18Z</time></trkpt><trkpt lat="45.162419900353875" lon="4.09495609336746"><ele>821.0</ele><time>2026-03-31T10:20:19Z</time></trkpt><trkpt lat="45.16249271695847" lon="4.094948823797402"><ele>820.5</ele><time>2026-03-31T10:20:20Z</time></trkpt><trkpt lat="45.16256093703986" lon="4.09494436599674"><ele>820.0</ele><time>2026-03-31T10:20:21Z</time></trkpt><trkpt lat="45.1626613410657" lon="4.094946322579575"><ele>819.5</ele><time>2026-03-31T10:20:23Z</time></trkpt><trkpt lat="45.16262548241016" lon="4.0950761974725784"><ele>819.0</ele><time>2026-03-31T10:20:26Z</time></trkpt><trkpt lat="45.1625822352014" lon="4.095162233414256"><ele>819.0</ele><time>2026-03-31T10:20:26.999Z</time></trkpt><trkpt lat="45.16256073092706" lon="4.0952858295585015"><ele>819.0</ele><time>2026-03-31T10:20:27.999Z</time></trkpt><trkpt lat="45.16253785516578" lon="4.095409987970784"><ele>819.0</ele><time>2026-03-31T10:20:28.999Z</time></trkpt><trkpt lat="45.16251940267556" lon="4.095525515153949"><ele>819.0</ele><time>2026-03-31T10:20:29.999Z</time></trkpt><trkpt lat="45.162499804064886" lon="4.095624253420149"><ele>819.0</ele><time>2026-03-31T10:20:30.999Z</time></trkpt><trkpt lat="45.16247820927337" lon="4.095731120438708"><ele>819.0</ele><time>2026-03-31T10:20:31.999Z</time></trkpt><trkpt lat="45.162453757735065" lon="4.095856697524045"><ele>820.0</ele><time>2026-03-31T10:20:32.999Z</time></trkpt><trkpt lat="45.16243034301874" lon="4.096001769678068"><ele>821.0</ele><time>2026-03-31T10:20:33.999Z</time></trkpt><trkpt lat="45.16240716819774" lon="4.0961303312412305"><ele>822.0</ele><time>2026-03-31T10:20:34.999Z</time></trkpt><trkpt lat="45.16239360955991" lon="4.096259618367836"><ele>823.0</ele><time>2026-03-31T10:20:35.999Z</time></trkpt><trkpt lat="45.162396312325484" lon="4.096384457648827"><ele>824.0</ele><time>2026-03-31T10:20:36.999Z</time></trkpt><trkpt lat="45.162401469068534" lon="4.096494919750944"><ele>825.1666666666667</ele><time>2026-03-31T10:20:37.999Z</time></trkpt><trkpt lat="45.16241508772146" lon="4.096600476041213"><ele>826.3333333333334</ele><time>2026-03-31T10:20:38.999Z</time></trkpt><trkpt lat="45.16243361519792" lon="4.0967098812287395"><ele>827.5</ele><time>2026-03-31T10:20:39.999Z</time></trkpt><trkpt lat="45.1624567903781" lon="4.096827116403298"><ele>828.6666666666667</ele><time>2026-03-31T10:20:40.999Z</time></trkpt><trkpt lat="45.16247061668176" lon="4.096951550267605"><ele>829.8333333333334</ele><time>2026-03-31T10:20:41.999Z</time></trkpt><trkpt lat="45.162474440157546" lon="4.097078738515682"><ele>831.0</ele><time>2026-03-31T10:20:42.999Z</time></trkpt><trkpt lat="45.16247425410535" lon="4.097201606534267"><ele>831.0</ele><time>2026-03-31T10:20:43.999Z</time></trkpt><trkpt lat="45.16247099623376" lon="4.097311804043477"><ele>831.0</ele><time>2026-03-31T10:20:44.999Z</time></trkpt><trkpt lat="45.16247396424577" lon="4.097411719982057"><ele>831.0</ele><time>2026-03-31T10:20:45.999Z</time></trkpt><trkpt lat="45.16248005089263" lon="4.097501513099758"><ele>831.0</ele><time>2026-03-31T10:20:46.999Z</time></trkpt><trkpt lat="45.1624929153648" lon="4.097671528807451"><ele>831.0</ele><time>2026-03-31T10:20:48.999Z</time></trkpt><trkpt lat="45.162500803799986" lon="4.097838811723837"><ele>830.7142857142857</ele><time>2026-03-31T10:20:50.999Z</time></trkpt><trkpt lat="45.162521781175144" lon="4.0979300490987915"><ele>830.4285714285714</ele><time>2026-03-31T10:20:51.999Z</time></trkpt><trkpt lat="45.162524612620736" lon="4.098034808968092"><ele>830.1428571428571</ele><time>2026-03-31T10:20:52.999Z</time></trkpt><trkpt lat="45.162527435309684" lon="4.098145324068815"><ele>829.8571428571429</ele><time>2026-03-31T10:20:53.999Z</time></trkpt><trkpt lat="45.16253083785401" lon="4.098252442933418"><ele>829.5714285714286</ele><time>2026-03-31T10:20:54.999Z</time></trkpt><trkpt lat="45.162537866019356" lon="4.098359780705039"><ele>829.2857142857142</ele><time>2026-03-31T10:20:55.999Z</time></trkpt><trkpt lat="45.16255089214583" lon="4.0984684007871515"><ele>829.0</ele><time>2026-03-31T10:20:56.999Z</time></trkpt><trkpt lat="45.16254212093244" lon="4.098599392843599"><ele>828.8000000000001</ele><time>2026-03-31T10:20:57.999Z</time></trkpt><trkpt lat="45.162565492276265" lon="4.098741614359737"><ele>828.6</ele><time>2026-03-31T10:20:58.999Z</time></trkpt><trkpt lat="45.162591005316585" lon="4.098868122812678"><ele>828.4</ele><time>2026-03-31T10:20:59.999Z</time></trkpt><trkpt lat="45.162636652312706" lon="4.098978741588933"><ele>828.2</ele><time>2026-03-31T10:21:00.999Z</time></trkpt><trkpt lat="45.16270145848877" lon="4.099075163615207"><ele>828.0</ele><time>2026-03-31T10:21:01.999Z</time></trkpt><trkpt lat="45.16276241030798" lon="4.099190565579487"><ele>826.2</ele><time>2026-03-31T10:21:02.999Z</time></trkpt><trkpt lat="45.16282557507686" lon="4.099304670817764"><ele>824.4</ele><time>2026-03-31T10:21:03.999Z</time></trkpt><trkpt lat="45.162872885809676" lon="4.099420878055776"><ele>822.6</ele><time>2026-03-31T10:21:04.999Z</time></trkpt><trkpt lat="45.162904537394255" lon="4.099538377651779"><ele>820.8000000000001</ele><time>2026-03-31T10:21:05.999Z</time></trkpt><trkpt lat="45.162936407368406" lon="4.09967752836166"><ele>819.0</ele><time>2026-03-31T10:21:06.999Z</time></trkpt><trkpt lat="45.16298091526465" lon="4.099812684279618"><ele>816.2</ele><time>2026-03-31T10:21:07.999Z</time></trkpt><trkpt lat="45.163010966154204" lon="4.099965467565594"><ele>813.4000000000001</ele><time>2026-03-31T10:21:08.999Z</time></trkpt><trkpt lat="45.16305096722345" lon="4.1001045124986355"><ele>810.6</ele><time>2026-03-31T10:21:09.999Z</time></trkpt><trkpt lat="45.16309851121962" lon="4.1002570456131044"><ele>807.8</ele><time>2026-03-31T10:21:10.999Z</time></trkpt><trkpt lat="45.16314803420698" lon="4.10038565326087"><ele>805.0</ele><time>2026-03-31T10:21:11.999Z</time></trkpt><trkpt lat="45.16319393810408" lon="4.100503132506979"><ele>806.0</ele><time>2026-03-31T10:21:12.999Z</time></trkpt><trkpt lat="45.16323726709536" lon="4.10060911871125"><ele>807.0</ele><time>2026-03-31T10:21:13.999Z</time></trkpt><trkpt lat="45.16329337159234" lon="4.100698668820688"><ele>808.0</ele><time>2026-03-31T10:21:14.999Z</time></trkpt><trkpt lat="45.16337217928112" lon="4.100767842881763"><ele>809.0</ele><time>2026-03-31T10:21:15.999Z</time></trkpt><trkpt lat="45.16345791718377" lon="4.10083778866006"><ele>810.0</ele><time>2026-03-31T10:21:16.999Z</time></trkpt><trkpt lat="45.163548384192936" lon="4.10091356993355"><ele>810.0</ele><time>2026-03-31T10:21:17.999Z</time></trkpt><trkpt lat="45.16364299073943" lon="4.101015272184131"><ele>810.0</ele><time>2026-03-31T10:21:18.999Z</time></trkpt><trkpt lat="45.163733937781004" lon="4.101123453494273"><ele>810.0</ele><time>2026-03-31T10:21:19.999Z</time></trkpt><trkpt lat="45.163816917690255" lon="4.101253405139581"><ele>810.0</ele><time>2026-03-31T10:21:20.998Z</time></trkpt><trkpt lat="45.1638799445501" lon="4.101402008819285"><ele>810.0</ele><time>2026-03-31T10:21:21.998Z</time></trkpt><trkpt lat="45.163934363207034" lon="4.101543195451734"><ele>810.0</ele><time>2026-03-31T10:21:22.998Z</time></trkpt><trkpt lat="45.163974359511144" lon="4.101688259006828"><ele>810.0</ele><time>2026-03-31T10:21:23.998Z</time></trkpt><trkpt lat="45.16400384504873" lon="4.101812822934071"><ele>810.0</ele><time>2026-03-31T10:21:24.998Z</time></trkpt><trkpt lat="45.16401418643617" lon="4.101927814873736"><ele>810.0</ele><time>2026-03-31T10:21:25.998Z</time></trkpt><trkpt lat="45.1640194274852" lon="4.102027641526815"><ele>810.0</ele><time>2026-03-31T10:21:26.998Z</time></trkpt><trkpt lat="45.16403577835788" lon="4.102136389476901"><ele>810.0</ele><time>2026-03-31T10:21:27.998Z</time></trkpt><trkpt lat="45.164035121199234" lon="4.102249555650818"><ele>810.0</ele><time>2026-03-31T10:21:28.998Z</time></trkpt><trkpt lat="45.16403493150366" lon="4.102352217198514"><ele>810.0</ele><time>2026-03-31T10:21:29.998Z</time></trkpt><trkpt lat="45.164057411943595" lon="4.102480803399939"><ele>810.0</ele><time>2026-03-31T10:21:30.998Z</time></trkpt><trkpt lat="45.16407207215499" lon="4.1026164700921255"><ele>810.0</ele><time>2026-03-31T10:21:31.998Z</time></trkpt><trkpt lat="45.16409398934642" lon="4.102731795328211"><ele>810.0</ele><time>2026-03-31T10:21:32.998Z</time></trkpt><trkpt lat="45.16412597135285" lon="4.10282669531371"><ele>810.0</ele><time>2026-03-31T10:21:33.998Z</time></trkpt><trkpt lat="45.16417571662651" lon="4.102918631386263"><ele>810.0</ele><time>2026-03-31T10:21:34.998Z</time></trkpt><trkpt lat="45.164252648932056" lon="4.102986466304957"><ele>810.0</ele><time>2026-03-31T10:21:36Z</time></trkpt><trkpt lat="45.16434363974176" lon="4.103059315797111"><ele>810.0</ele><time>2026-03-31T10:21:37Z</time></trkpt><trkpt lat="45.16443111895553" lon="4.103145758566142"><ele>810.0</ele><time>2026-03-31T10:21:38Z</time></trkpt><trkpt lat="45.16451336602617" lon="4.1032471798813255"><ele>810.0</ele><time>2026-03-31T10:21:39Z</time></trkpt><trkpt lat="45.16458042687343" lon="4.103339728320006"><ele>810.0</ele><time>2026-03-31T10:21:40Z</time></trkpt><trkpt lat="45.164603115259034" lon="4.103452725049182"><ele>810.0</ele><time>2026-03-31T10:21:41Z</time></trkpt><trkpt lat="45.164642097441295" lon="4.103559475333719"><ele>810.0</ele><time>2026-03-31T10:21:42Z</time></trkpt><trkpt lat="45.16467696853717" lon="4.103664461867779"><ele>808.1666666666666</ele><time>2026-03-31T10:21:43Z</time></trkpt><trkpt lat="45.164708765033055" lon="4.103761752055927"><ele>806.3333333333333</ele><time>2026-03-31T10:21:44Z</time></trkpt><trkpt lat="45.164743096404486" lon="4.103867791438901"><ele>804.5</ele><time>2026-03-31T10:21:45Z</time></trkpt><trkpt lat="45.16477489941932" lon="4.103966021914402"><ele>802.6666666666666</ele><time>2026-03-31T10:21:46Z</time></trkpt><trkpt lat="45.16481530225049" lon="4.104084869695376"><ele>800.8333333333333</ele><time>2026-03-31T10:21:47Z</time></trkpt><trkpt lat="45.16484386951209" lon="4.104164740930371"><ele>799.0</ele><time>2026-03-31T10:21:48Z</time></trkpt><trkpt lat="45.16487379279639" lon="4.1042484033086195"><ele>797.8000000000001</ele><time>2026-03-31T10:21:49Z</time></trkpt><trkpt lat="45.164914771503625" lon="4.104353845727121"><ele>796.6</ele><time>2026-03-31T10:21:50Z</time></trkpt><trkpt lat="45.16498103980295" lon="4.104463924782611"><ele>795.4</ele><time>2026-03-31T10:21:51Z</time></trkpt><trkpt lat="45.16502673504241" lon="4.1045339746882545"><ele>794.2</ele><time>2026-03-31T10:21:52Z</time></trkpt><trkpt lat="45.165118704760474" lon="4.104531273793366"><ele>793.0</ele><time>2026-03-31T10:21:53Z</time></trkpt><trkpt lat="45.16523060345502" lon="4.104484036560772"><ele>793.0</ele><time>2026-03-31T10:21:55Z</time></trkpt><trkpt lat="45.16530313357592" lon="4.104480174241869"><ele>793.0</ele><time>2026-03-31T10:21:56Z</time></trkpt><trkpt lat="45.165374554954305" lon="4.104448988725668"><ele>793.0</ele><time>2026-03-31T10:21:57Z</time></trkpt><trkpt lat="45.16546909905367" lon="4.10440203921196"><ele>793.0</ele><time>2026-03-31T10:21:58Z</time></trkpt><trkpt lat="45.165569965771084" lon="4.104351949896182"><ele>793.0</ele><time>2026-03-31T10:21:59Z</time></trkpt><trkpt lat="45.165666595744" lon="4.1042883059624495"><ele>794.0</ele><time>2026-03-31T10:22:00Z</time></trkpt><trkpt lat="45.16578348325874" lon="4.104235086450822"><ele>795.0</ele><time>2026-03-31T10:22:01Z</time></trkpt><trkpt lat="45.165895630637095" lon="4.104190019553752"><ele>796.0</ele><time>2026-03-31T10:22:02Z</time></trkpt><trkpt lat="45.16600474514746" lon="4.1041647308288205"><ele>797.0</ele><time>2026-03-31T10:22:03Z</time></trkpt><trkpt lat="45.166117417191636" lon="4.10411445357852"><ele>801.25</ele><time>2026-03-31T10:22:04Z</time></trkpt><trkpt lat="45.16623389168007" lon="4.104060155849428"><ele>805.5</ele><time>2026-03-31T10:22:05Z</time></trkpt><trkpt lat="45.16633321393056" lon="4.103985520770921"><ele>809.75</ele><time>2026-03-31T10:22:06Z</time></trkpt><trkpt lat="45.166433700583255" lon="4.1039303305375885"><ele>814.0</ele><time>2026-03-31T10:22:07Z</time></trkpt><trkpt lat="45.16653544740543" lon="4.103851924953482"><ele>814.0</ele><time>2026-03-31T10:22:08Z</time></trkpt><trkpt lat="45.166634398691315" lon="4.103772172560281"><ele>814.0</ele><time>2026-03-31T10:22:09Z</time></trkpt><trkpt lat="45.16673133344787" lon="4.103714670654999"><ele>814.0</ele><time>2026-03-31T10:22:10Z</time></trkpt><trkpt lat="45.16681993722974" lon="4.10366478483241"><ele>814.0</ele><time>2026-03-31T10:22:11Z</time></trkpt><trkpt lat="45.1669047304837" lon="4.103601914171118"><ele>814.0</ele><time>2026-03-31T10:22:12Z</time></trkpt><trkpt lat="45.16700342066807" lon="4.1035110797362995"><ele>813.9999999999999</ele><time>2026-03-31T10:22:14Z</time></trkpt><trkpt lat="45.16702680184204" lon="4.103418314980308"><ele>814.0</ele><time>2026-03-31T10:22:15Z</time></trkpt><trkpt lat="45.167049970669794" lon="4.103318767152421"><ele>814.0</ele><time>2026-03-31T10:22:16Z</time></trkpt><trkpt lat="45.167027144310396" lon="4.103234279761409"><ele>814.0</ele><time>2026-03-31T10:22:17Z</time></trkpt><trkpt lat="45.166986679077716" lon="4.103105826984757"><ele>813.9999999999999</ele><time>2026-03-31T10:22:19Z</time></trkpt><trkpt lat="45.16691048243029" lon="4.102993823011009"><ele>814.0</ele><time>2026-03-31T10:22:22Z</time></trkpt><trkpt lat="45.166812669232655" lon="4.103027021316982"><ele>814.8000000000001</ele><time>2026-03-31T10:22:23Z</time></trkpt><trkpt lat="45.16675433851478" lon="4.102984567338309"><ele>815.6</ele><time>2026-03-31T10:22:24Z</time></trkpt><trkpt lat="45.166705044624806" lon="4.102895541943224"><ele>816.4</ele><time>2026-03-31T10:22:25Z</time></trkpt><trkpt lat="45.16667383259127" lon="4.102770342532164"><ele>817.2</ele><time>2026-03-31T10:22:26Z</time></trkpt><trkpt lat="45.16667035202281" lon="4.102623804463554"><ele>818.0</ele><time>2026-03-31T10:22:27Z</time></trkpt><trkpt lat="45.166646872269645" lon="4.102470334397169"><ele>817.4</ele><time>2026-03-31T10:22:28Z</time></trkpt><trkpt lat="45.16662276904774" lon="4.102330800759068"><ele>816.8</ele><time>2026-03-31T10:22:29Z</time></trkpt><trkpt lat="45.16661568856615" lon="4.102188897047038"><ele>816.2</ele><time>2026-03-31T10:22:30Z</time></trkpt><trkpt lat="45.16660705231936" lon="4.1020517456784225"><ele>815.6</ele><time>2026-03-31T10:22:31Z</time></trkpt><trkpt lat="45.16659262650695" lon="4.10191965869345"><ele>815.0</ele><time>2026-03-31T10:22:32Z</time></trkpt><trkpt lat="45.166574652955845" lon="4.101780345755364"><ele>815.0</ele><time>2026-03-31T10:22:33Z</time></trkpt><trkpt lat="45.166544773579325" lon="4.101651131037827"><ele>815.0</ele><time>2026-03-31T10:22:34Z</time></trkpt><trkpt lat="45.16650241183536" lon="4.101509309184278"><ele>815.0</ele><time>2026-03-31T10:22:35Z</time></trkpt><trkpt lat="45.166446112903756" lon="4.101364633326748"><ele>815.0</ele><time>2026-03-31T10:22:36Z</time></trkpt><trkpt lat="45.16638442510455" lon="4.101216267686166"><ele>815.0</ele><time>2026-03-31T10:22:37Z</time></trkpt><trkpt lat="45.16633619024319" lon="4.101058127171263"><ele>817.0</ele><time>2026-03-31T10:22:38Z</time></trkpt><trkpt lat="45.16629016191591" lon="4.100900741711748"><ele>819.0</ele><time>2026-03-31T10:22:38.999Z</time></trkpt><trkpt lat="45.16624518482398" lon="4.100750543987884"><ele>821.0</ele><time>2026-03-31T10:22:39.999Z</time></trkpt><trkpt lat="45.16623119970541" lon="4.100607823885052"><ele>823.0</ele><time>2026-03-31T10:22:40.999Z</time></trkpt><trkpt lat="45.16623697844334" lon="4.1004974176006135"><ele>825.0</ele><time>2026-03-31T10:22:41.999Z</time></trkpt><trkpt lat="45.166278958606995" lon="4.100345996008195"><ele>825.2</ele><time>2026-03-31T10:22:43.999Z</time></trkpt><trkpt lat="45.16632602211278" lon="4.100268299712366"><ele>825.4</ele><time>2026-03-31T10:22:44.999Z</time></trkpt><trkpt lat="45.16640384926539" lon="4.100198457441008"><ele>825.5999999999999</ele><time>2026-03-31T10:22:45.999Z</time></trkpt><trkpt lat="45.16649132791404" lon="4.100106082890807"><ele>825.8</ele><time>2026-03-31T10:22:46.999Z</time></trkpt><trkpt lat="45.16658894498342" lon="4.100031475633896"><ele>826.0</ele><time>2026-03-31T10:22:47.999Z</time></trkpt><trkpt lat="45.16668070462681" lon="4.099959401469631"><ele>825.4</ele><time>2026-03-31T10:22:48.999Z</time></trkpt><trkpt lat="45.16675216736434" lon="4.099857478122894"><ele>824.8</ele><time>2026-03-31T10:22:49.999Z</time></trkpt><trkpt lat="45.166799767736066" lon="4.099719870370227"><ele>824.1999999999999</ele><time>2026-03-31T10:22:50.999Z</time></trkpt><trkpt lat="45.1668360235794" lon="4.099556396481261"><ele>823.5999999999999</ele><time>2026-03-31T10:22:51.999Z</time></trkpt><trkpt lat="45.16685301402344" lon="4.099405724122352"><ele>823.0</ele><time>2026-03-31T10:22:52.999Z</time></trkpt><trkpt lat="45.16685240857499" lon="4.099258420218047"><ele>823.0</ele><time>2026-03-31T10:22:53.999Z</time></trkpt><trkpt lat="45.1668207117152" lon="4.09911314568949"><ele>823.0</ele><time>2026-03-31T10:22:54.999Z</time></trkpt><trkpt lat="45.166769347367705" lon="4.098971760042104"><ele>823.0</ele><time>2026-03-31T10:22:55.999Z</time></trkpt><trkpt lat="45.16673883737126" lon="4.09882521412305"><ele>823.0</ele><time>2026-03-31T10:22:56.999Z</time></trkpt><trkpt lat="45.16668677551499" lon="4.09867763867636"><ele>823.0</ele><time>2026-03-31T10:22:57.999Z</time></trkpt><trkpt lat="45.16663574781828" lon="4.098531152194434"><ele>823.4</ele><time>2026-03-31T10:22:58.999Z</time></trkpt><trkpt lat="45.16659174530023" lon="4.09839884119329"><ele>823.8</ele><time>2026-03-31T10:22:59.999Z</time></trkpt><trkpt lat="45.16655181135471" lon="4.098278778950109"><ele>824.2</ele><time>2026-03-31T10:23:00.999Z</time></trkpt><trkpt lat="45.16651271214515" lon="4.098161267690603"><ele>824.6</ele><time>2026-03-31T10:23:01.999Z</time></trkpt><trkpt lat="45.16646688726713" lon="4.098040939997626"><ele>825.0</ele><time>2026-03-31T10:23:02.999Z</time></trkpt><trkpt lat="45.166421715516925" lon="4.097924701558942"><ele>824.3333333333334</ele><time>2026-03-31T10:23:03.999Z</time></trkpt><trkpt lat="45.16636432661551" lon="4.0978268809155445"><ele>823.6666666666667</ele><time>2026-03-31T10:23:04.999Z</time></trkpt><trkpt lat="45.16632658290796" lon="4.097728216442567"><ele>823.0</ele><time>2026-03-31T10:23:05.999Z</time></trkpt><trkpt lat="45.16628650511266" lon="4.097633173056424"><ele>822.3333333333334</ele><time>2026-03-31T10:23:06.999Z</time></trkpt><trkpt lat="45.16624528531026" lon="4.097541306965536"><ele>821.6666666666667</ele><time>2026-03-31T10:23:07.999Z</time></trkpt><trkpt lat="45.16619588536664" lon="4.097455472467058"><ele>821.0</ele><time>2026-03-31T10:23:08.999Z</time></trkpt><trkpt lat="45.16613846863969" lon="4.097380576951693"><ele>821.0</ele><time>2026-03-31T10:23:09.999Z</time></trkpt><trkpt lat="45.166100735710486" lon="4.097290514155282"><ele>821.0</ele><time>2026-03-31T10:23:10.999Z</time></trkpt><trkpt lat="45.166039810441674" lon="4.097234677277287"><ele>821.0</ele><time>2026-03-31T10:23:11.999Z</time></trkpt><trkpt lat="45.165981183224304" lon="4.097184616776779"><ele>821.0</ele><time>2026-03-31T10:23:12.999Z</time></trkpt></trkseg></trk></gpx>